Data for 05/04/2010

Time Sea-Level Adjusted Pressure Absolute Pressure Temperature Relative Humidity Dew Point Precipitation   
(mb) (inHg) (mb) (inHg) (C) (F) (%) (C) (F) (mm) (in)
00:01 1012 29.88 841 24.83 -0.5 31.2 83 -3.1 26.5 -.41 -0.016
00:02 1012 29.88 841 24.83 -0.5 31.2 85 -2.7 27.1 -.382 -0.015
00:03 1012 29.88 841 24.83 -0.5 31.1 84 -2.9 26.8 -.376 -0.015
00:04 1012 29.88 841 24.83 -0.5 31.1 83 -2.9 26.7 -.337 -0.013
00:05 1012 29.88 841 24.83 -0.5 31.2 84 -2.9 26.8 -.348 -0.014
00:06 1012 29.88 841 24.83 -0.5 31.2 84 -2.8 26.9 -.347 -0.014
00:07 1012 29.88 841 24.83 -0.5 31.1 85 -2.8 26.9 -.375 -0.015
00:08 1012 29.88 841 24.83 -0.6 31 83 -3.2 26.3 -.432 -0.017
00:09 1012 29.88 841 24.83 -0.5 31.1 80 -3.6 25.5 -.391 -0.015
00:10 1012 29.88 841 24.83 -0.5 31.2 81 -3.4 26 -.346 -0.014
00:11 1012 29.88 841 24.83 -0.4 31.3 81 -3.3 26.1 -.306 -0.012
00:12 1012 29.88 841 24.83 -0.4 31.3 83 -3 26.6 -.271 -0.011
00:13 1012 29.88 841 24.83 -0.5 31.2 79 -3.6 25.5 -.305 -0.012
00:14 1012 29.88 841 24.83 -0.4 31.2 81 -3.2 26.2 -.248 -0.01
00:15 1012 29.88 841 24.83 -0.5 31.2 81 -3.3 26 -.327 -0.013
00:16 1012 29.88 841 24.83 -0.5 31.1 80 -3.5 25.7 -.282 -0.011
00:17 1012 29.88 841 24.83 -0.5 31.2 80 -3.5 25.7 -.259 -0.01
00:18 1012 29.88 841 24.83 -0.4 31.2 79 -3.6 25.4 -.23 -0.009
00:19 1012 29.88 841 24.83 -0.4 31.2 80 -3.5 25.7 -.224 -0.009
00:20 1012 29.88 841 24.83 -0.4 31.2 81 -3.4 25.9 -.196 -0.008
00:21 1012 29.88 841 24.83 -0.5 31.1 79 -3.6 25.4 -.218 -0.009
00:22 1012 29.88 841 24.83 -0.5 31.2 80 -3.5 25.8 -.224 -0.009
00:23 1012 29.88 841 24.83 -0.5 31.2 81 -3.3 26 -.19 -0.007
00:24 1012 29.88 841 24.83 -0.5 31 78 -3.9 24.9 -.207 -0.008
00:25 1012 29.88 841 24.83 -0.4 31.3 78 -3.8 25.2 -.173 -0.007
00:26 1012 29.88 841 24.83 -0.4 31.2 80 -3.5 25.6 -.138 -0.005
00:27 1012 29.88 841 24.83 -0.5 31.2 81 -3.3 26 -.127 -0.005
00:28 1012 29.88 841 24.83 -0.5 31.1 80 -3.6 25.6 -.223 -0.009
00:29 1012 29.88 841 24.83 -0.5 31.1 77 -4.1 24.7 -.251 -0.01
00:30 1012 29.88 841 24.83 -0.5 31.2 77 -4.1 24.7 -.178 -0.007
00:31 1012 29.88 841 24.83 -0.4 31.2 77 -4 24.8 -.166 -0.007
00:32 1012 29.88 841 24.83 -0.4 31.2 76 -4.1 24.6 -.183 -0.007
00:33 1012 29.88 841 24.83 -0.5 31.2 78 -3.9 25 -.211 -0.008
00:34 1012 29.88 841 24.83 -0.5 31.1 78 -4 24.9 -.245 -0.01
00:35 1012 29.88 841 24.83 -0.6 31 76 -4.3 24.2 -.285 -0.011
00:36 1012 29.88 841 24.83 -0.5 31 75 -4.5 23.9 -.296 -0.012
00:37 1012 29.88 841 24.83 -0.6 31 76 -4.3 24.2 -.302 -0.012
00:38 1012 29.88 841 24.83 -0.6 30.9 76 -4.3 24.2 -.302 -0.012
00:39 1012 29.88 841 24.83 -0.7 30.8 74 -4.8 23.3 -.364 -0.014
00:40 1012 29.88 841 24.83 -0.6 30.9 73 -4.9 23.3 -.358 -0.014
00:41 1012 29.88 841 24.83 -0.7 30.8 75 -4.6 23.6 -.358 -0.014
00:42 1012 29.88 841 24.83 -0.7 30.7 74 -4.8 23.4 -.358 -0.014
00:43 1012 29.88 841 24.83 -0.7 30.8 74 -4.8 23.4 -.37 -0.015
00:44 1012 29.88 841 24.83 -0.7 30.8 73 -5 23 -.421 -0.017
00:45 1012 29.88 841 24.83 -0.7 30.7 74 -4.7 23.5 -.421 -0.017
00:46 1012 29.88 841 24.83 -0.8 30.6 74 -4.8 23.4 -.438 -0.017
00:47 1012 29.88 841 24.83 -0.8 30.6 71 -5.3 22.4 -.505 -0.02
00:48 1012 29.88 841 24.83 -0.7 30.7 71 -5.3 22.5 -.5 -0.02
00:49 1012 29.88 841 24.83 -0.7 30.7 71 -5.3 22.4 -.46 -0.018
00:50 1012 29.88 841 24.83 -0.7 30.7 71 -5.4 22.3 -.381 -0.015
00:51 1012 29.88 841 24.83 -0.8 30.6 72 -5.2 22.7 -.46 -0.018
00:52 1012 29.88 841 24.83 -0.8 30.5 73 -5 22.9 -.534 -0.021
00:53 1012 29.88 841 24.83 -0.8 30.6 72 -5.3 22.5 -.517 -0.02
00:54 1012 29.88 841 24.83 -0.8 30.6 70 -5.5 22.1 -.432 -0.017
00:55 1012 29.88 841 24.83 -0.7 30.7 71 -5.3 22.4 -.398 -0.016
00:56 1012 29.88 841 24.83 -0.7 30.8 71 -5.3 22.4 -.358 -0.014
00:57 1012 29.88 841 24.83 -0.7 30.7 71 -5.4 22.4 -.364 -0.014
00:58 1012 29.88 841 24.83 -0.7 30.7 70 -5.4 22.2 -.364 -0.014
00:59 1012 29.88 841 24.83 -0.7 30.8 70 -5.5 22.1 -.33 -0.013
01:00 1012 29.88 841 24.83 -0.6 30.9 71 -5.3 22.5 -.284 -0.011
01:01 1012 29.88 841 24.83 -0.6 30.8 73 -4.9 23.3 -.307 -0.012
01:02 1012 29.88 841 24.83 -0.7 30.7 71 -5.4 22.3 -.381 -0.015
01:03 1012 29.88 841 24.83 -0.7 30.7 71 -5.4 22.3 -.415 -0.016
01:04 1012 29.88 841 24.83 -0.8 30.6 71 -5.3 22.4 -.443 -0.017
01:05 1012 29.88 841 24.83 -0.8 30.5 74 -4.9 23.1 -.5 -0.02
01:06 1012 29.88 841 24.83 -0.9 30.3 71 -5.6 21.9 -.602 -0.024
01:07 1012 29.88 841 24.83 -0.9 30.4 67 -6.3 20.7 -.619 -0.024
01:08 1012 29.88 841 24.83 -0.7 30.8 63 -6.8 19.7 -.466 -0.018
01:09 1012 29.88 841 24.83 -0.6 30.9 62 -6.9 19.5 -.262 -0.01
01:10 1012 29.88 841 24.83 -0.5 31 64 -6.5 20.4 -.182 -0.007
01:11 1012 29.88 841 24.83 -0.6 30.9 66 -6.2 20.8 -.233 -0.009
01:12 1012 29.88 841 24.83 -0.6 30.9 68 -5.8 21.6 -.262 -0.01
01:13 1012 29.88 841 24.83 -0.7 30.8 67 -6.1 20.9 -.324 -0.013
01:14 1012 29.88 841 24.83 -0.7 30.8 67 -6.1 21.1 -.364 -0.014
01:15 1012 29.88 841 24.83 -0.7 30.7 64 -6.8 19.8 -.375 -0.015
01:16 1012 29.88 841 24.83 -0.7 30.8 65 -6.4 20.4 -.296 -0.012
01:17 1012 29.88 841 24.83 -0.7 30.7 66 -6.2 20.8 -.398 -0.016
01:18 1012 29.88 841 24.83 -0.8 30.5 66 -6.4 20.5 -.511 -0.02
01:19 1012 29.88 841 24.83 -0.9 30.4 70 -5.7 21.7 -.596 -0.023
01:20 1012 29.88 841 24.83 -1 30.2 70 -5.7 21.7 -.675 -0.027
01:21 1012 29.88 841 24.83 -1.1 30.1 69 -6 21.1 -.737 -0.029
01:22 1012 29.88 841 24.83 -1 30.1 69 -6 21.3 -.743 -0.029
01:23 1012 29.88 841 24.83 -1.1 30.1 69 -6.1 21.1 -.749 -0.029
01:24 1012 29.88 841 24.83 -1.1 30 69 -6.1 21 -.703 -0.028
01:25 1012 29.88 841 24.83 -1.1 30 69 -6 21.2 -.749 -0.029
01:26 1012 29.88 841 24.83 -1.2 29.8 72 -5.7 21.7 -.794 -0.031
01:27 1012 29.88 841 24.83 -1.3 29.7 70 -6 21.2 -.919 -0.036
01:28 1012 29.88 841 24.83 -1.3 29.7 69 -6.2 20.9 -.924 -0.036
01:29 1012 29.88 841 24.83 -1.3 29.6 69 -6.2 20.8 -.941 -0.037
01:30 1012 29.88 841 24.83 -1.3 29.7 68 -6.5 20.3 -.919 -0.036
01:31 1012 29.88 841 24.83 -1.2 29.8 66 -6.7 19.9 -.828 -0.033
01:32 1012 29.88 841 24.83 -1.1 30 66 -6.7 19.9 -.754 -0.03
01:33 1012 29.88 841 24.83 -1.1 30 66 -6.6 20.1 -.743 -0.029
01:34 1012 29.88 841 24.83 -1.1 30 68 -6.2 20.8 -.743 -0.029
01:35 1012 29.88 841 24.83 -1.2 29.9 67 -6.5 20.3 -.783 -0.031
01:36 1012 29.88 841 24.83 -1.2 29.8 66 -6.8 19.8 -.856 -0.034
01:37 1012 29.88 841 24.83 -1.2 29.8 65 -7 19.3 -.879 -0.035
01:38 1012 29.88 841 24.83 -1.2 29.9 64 -7.2 19.1 -.839 -0.033
01:39 1012 29.88 841 24.83 -1.1 30.1 55 -9 15.9 -.737 -0.029
01:40 1012 29.88 841 24.83 -0.9 30.4 61 -7.5 18.5 -.522 -0.021
01:41 1012 29.88 841 24.83 -0.8 30.6 60 -7.7 18.2 -.415 -0.016
01:42 1012 29.88 841 24.83 -0.8 30.6 60 -7.5 18.5 -.42 -0.017
01:43 1012 29.88 841 24.83 -0.9 30.4 61 -7.6 18.4 -.528 -0.021
01:44 1012 29.88 841 24.83 -0.9 30.3 60 -7.7 18.2 -.607 -0.024
01:45 1012 29.88 841 24.83 -0.9 30.3 62 -7.3 18.9 -.647 -0.025
01:46 1012 29.88 841 24.83 -1 30.1 65 -6.8 19.8 -.725 -0.029
01:47 1012 29.88 841 24.83 -1.2 29.8 63 -7.3 18.8 -.878 -0.035
01:48 1012 29.88 841 24.83 -1.3 29.6 65 -7 19.4 -.979 -0.039
01:49 1012 29.88 841 24.83 -1.4 29.5 65 -7.1 19.2 -1.058 -0.042
01:50 1012 29.88 841 24.83 -1.5 29.4 66 -6.9 19.5 -1.103 -0.043
01:51 1012 29.88 841 24.83 -1.5 29.2 67 -6.9 19.6 -1.159 -0.046
01:52 1012 29.88 841 24.83 -1.6 29.1 68 -6.7 19.9 -1.289 -0.051
01:53 1012 29.88 841 24.83 -1.8 28.8 69 -6.8 19.7 -1.38 -0.054
01:54 1012 29.88 841 24.83 -1.9 28.6 69 -6.8 19.8 -1.476 -0.058
01:55 1012 29.88 841 24.83 -1.9 28.5 70 -6.8 19.8 -1.577 -0.062
01:56 1012 29.88 841 24.83 -2 28.4 69 -7 19.5 -1.645 -0.065
01:57 1012 29.88 841 24.83 -2 28.5 67 -7.2 19 -1.617 -0.064
01:58 1012 29.88 841 24.83 -1.9 28.6 69 -6.9 19.6 -1.543 -0.061
01:59 1012 29.88 841 24.83 -1.9 28.5 67 -7.3 18.9 -1.56 -0.061
02:00 1012 29.88 841 24.83 -1.9 28.6 66 -7.4 18.6 -1.531 -0.06
02:01 1012 29.88 841 24.83 -1.9 28.5 67 -7.2 19.1 -1.52 -0.06
02:02 1012 29.88 841 24.83 -1.9 28.5 68 -7.2 19.1 -1.554 -0.061
02:03 1012 29.88 841 24.83 -2 28.4 69 -6.9 19.6 -1.588 -0.063
02:04 1012 29.88 841 24.83 -2.1 28.2 69 -7 19.3 -1.667 -0.066
02:05 1012 29.88 841 24.83 -2.2 28.1 70 -6.9 19.7 -1.752 -0.069
02:06 1012 29.88 841 24.83 -2.2 28 69 -7.1 19.2 -1.842 -0.073
02:07 1012 29.88 841 24.83 -2.3 27.9 70 -7.1 19.3 -1.859 -0.073
02:08 1012 29.88 841 24.83 -2.3 27.9 69 -7.2 19 -1.921 -0.076
02:09 1012 29.88 841 24.83 -2.2 28 67 -7.6 18.3 -1.83 -0.072
02:10 1012 29.88 841 24.83 -2.1 28.3 66 -7.5 18.5 -1.7 -0.067
02:11 1012 29.88 841 24.83 -2 28.4 67 -7.4 18.7 -1.57 -0.062
02:12 1012 29.88 841 24.83 -2 28.4 68 -7.2 19.1 -1.592 -0.063
02:13 1012 29.88 841 24.83 -2.1 28.2 68 -7.3 18.9 -1.694 -0.067
02:14 1012 29.88 841 24.83 -2.2 28.1 68 -7.2 19 -1.779 -0.07
02:15 1012 29.88 841 24.83 -2.2 28 68 -7.3 18.8 -1.819 -0.072
02:16 1012 29.88 841 24.83 -2.3 27.9 69 -7.2 19.1 -1.83 -0.072
02:17 1012 29.88 841 24.83 -2.3 27.9 69 -7.1 19.2 -1.853 -0.073
02:18 1012 29.88 841 24.83 -2.3 27.9 68 -7.4 18.7 -1.909 -0.075
02:19 1012 29.88 841 24.83 -2.3 27.9 70 -7.1 19.2 -1.887 -0.074
02:20 1012 29.88 841 24.83 -2.3 27.8 69 -7.4 18.7 -1.977 -0.078
02:21 1012 29.88 841 24.83 -2.3 27.8 70 -7.1 19.2 -1.936 -0.076
02:22 1012 29.88 841 24.83 -2.3 27.9 70 -7.1 19.2 -1.914 -0.075
02:23 1012 29.88 841 24.83 -2.3 27.9 68 -7.4 18.7 -1.863 -0.073
02:24 1012 29.88 841 24.83 -2.2 28 68 -7.3 18.9 -1.89 -0.074
02:25 1012 29.88 841 24.83 -2.3 27.9 69 -7.2 19.1 -1.884 -0.074
02:26 1012 29.88 841 24.83 -2.3 27.9 70 -7.1 19.2 -1.912 -0.075
02:27 1012 29.88 841 24.83 -2.3 27.8 68 -7.4 18.7 -1.957 -0.077
02:28 1012 29.88 841 24.83 -2.3 27.9 68 -7.5 18.5 -1.929 -0.076
02:29 1012 29.88 841 24.83 -2.3 27.9 68 -7.4 18.6 -1.883 -0.074
02:30 1012 29.88 841 24.83 -2.3 27.8 69 -7.3 18.9 -1.9 -0.075
02:31 1012 29.88 841 24.83 -2.4 27.8 70 -7.1 19.2 -1.962 -0.077
02:32 1012 29.88 841 24.83 -2.4 27.7 70 -7.2 19.1 -1.979 -0.078
02:33 1012 29.88 841 24.83 -2.4 27.7 69 -7.3 18.9 -1.961 -0.077
02:34 1012 29.88 841 24.83 -2.3 27.9 69 -7.3 18.9 -1.91 -0.075
02:35 1012 29.88 841 24.83 -2.2 28 69 -7.2 19.1 -1.831 -0.072
02:36 1012 29.88 841 24.83 -2.2 28 68 -7.3 18.9 -1.819 -0.072
02:37 1012 29.88 841 24.83 -2.2 28.1 68 -7.2 19 -1.774 -0.07
02:38 1012 29.88 841 24.83 -2.1 28.2 67 -7.4 18.6 -1.711 -0.067
02:39 1012 29.88 842 24.86 -2 28.4 67 -7.3 18.8 -1.66 -0.065
02:40 1012 29.88 842 24.86 -2 28.4 69 -7 19.4 -1.609 -0.063
02:41 1012 29.88 842 24.86 -2.1 28.2 69 -7.1 19.3 -1.705 -0.067
02:42 1012 29.88 842 24.86 -2.2 28 70 -7 19.3 -1.79 -0.07
02:43 1012 29.88 842 24.86 -2.3 27.8 68 -7.5 18.5 -1.909 -0.075
02:44 1012 29.88 842 24.86 -2.2 28 68 -7.4 18.6 -1.864 -0.073
02:45 1012 29.88 842 24.86 -2.1 28.2 66 -7.7 18.2 -1.716 -0.068
02:46 1012 29.88 842 24.86 -2 28.5 67 -7.4 18.8 -1.541 -0.061
02:47 1012 29.88 842 24.86 -2 28.4 68 -7.2 19 -1.563 -0.062
02:48 1013 29.91 842 24.86 -2.1 28.3 68 -7.3 18.9 -1.614 -0.064
02:49 1012 29.88 842 24.86 -2.1 28.2 66 -7.7 18.1 -1.676 -0.066
02:50 1012 29.88 842 24.86 -2 28.4 66 -7.5 18.6 -1.608 -0.063
02:51 1012 29.88 842 24.86 -2 28.5 66 -7.5 18.4 -1.603 -0.063
02:52 1012 29.88 842 24.86 -1.9 28.5 66 -7.5 18.5 -1.546 -0.061
02:53 1012 29.88 841 24.83 -1.9 28.6 67 -7.3 18.9 -1.518 -0.06
02:54 1012 29.88 841 24.83 -1.9 28.6 67 -7.3 18.9 -1.489 -0.059
02:55 1012 29.88 841 24.83 -1.9 28.5 66 -7.4 18.7 -1.489 -0.059
02:56 1012 29.88 841 24.83 -1.9 28.5 67 -7.2 19 -1.518 -0.06
02:57 1012 29.88 842 24.86 -1.9 28.5 66 -7.4 18.7 -1.534 -0.06
02:58 1012 29.88 842 24.86 -2 28.5 67 -7.3 18.8 -1.546 -0.061
02:59 1012 29.88 842 24.86 -2 28.4 65 -7.8 18 -1.597 -0.063
03:00 1012 29.88 842 24.86 -1.9 28.5 66 -7.4 18.6 -1.546 -0.061
03:01 1012 29.88 842 24.86 -1.9 28.6 66 -7.5 18.5 -1.512 -0.06
03:02 1012 29.88 842 24.86 -1.9 28.6 65 -7.6 18.3 -1.529 -0.06
03:03 1013 29.91 842 24.86 -1.9 28.5 66 -7.6 18.4 -1.54 -0.061
03:04 1013 29.91 842 24.86 -1.9 28.6 66 -7.4 18.7 -1.517 -0.06
03:05 1013 29.91 842 24.86 -2 28.4 66 -7.5 18.5 -1.574 -0.062
03:06 1013 29.91 842 24.86 -2.1 28.2 67 -7.3 18.8 -1.682 -0.066
03:07 1013 29.91 842 24.86 -2.1 28.3 66 -7.6 18.4 -1.704 -0.067
03:08 1013 29.91 842 24.86 -2.1 28.3 67 -7.4 18.7 -1.687 -0.066
03:09 1013 29.91 842 24.86 -2.2 28.1 67 -7.6 18.4 -1.772 -0.07
03:10 1013 29.91 842 24.86 -2.2 28 67 -7.5 18.5 -1.835 -0.072
03:11 1013 29.91 842 24.86 -2.3 27.9 67 -7.6 18.4 -1.897 -0.075
03:12 1013 29.91 842 24.86 -2.4 27.7 68 -7.4 18.6 -1.959 -0.077
03:13 1013 29.91 842 24.86 -2.4 27.6 66 -7.9 17.8 -2.027 -0.08
03:14 1013 29.91 842 24.86 -2.4 27.7 68 -7.6 18.4 -2.021 -0.08
03:15 1013 29.91 842 24.86 -2.5 27.6 69 -7.5 18.6 -2.05 -0.081
03:16 1013 29.91 842 24.86 -2.5 27.5 69 -7.4 18.7 -2.157 -0.085
03:17 1013 29.91 842 24.86 -2.7 27.2 69 -7.5 18.5 -2.22 -0.087
03:18 1013 29.91 842 24.86 -2.8 27 70 -7.6 18.4 -2.305 -0.091
03:19 1013 29.91 842 24.86 -2.8 26.9 70 -7.5 18.5 -2.401 -0.095
03:20 1013 29.91 842 24.86 -2.9 26.8 71 -7.4 18.7 -2.503 -0.099
03:21 1013 29.91 842 24.86 -3 26.6 71 -7.5 18.5 -2.56 -0.101
03:22 1013 29.91 842 24.86 -3 26.5 71 -7.6 18.3 -2.656 -0.105
03:23 1013 29.91 842 24.86 -3.1 26.5 70 -7.7 18.1 -2.633 -0.104
03:24 1013 29.91 842 24.86 -3.1 26.5 71 -7.7 18.2 -2.65 -0.104
03:25 1013 29.91 842 24.86 -3 26.6 70 -7.8 18 -2.645 -0.104
03:26 1013 29.91 842 24.86 -3 26.6 70 -7.7 18.1 -2.588 -0.102
03:27 1013 29.91 842 24.86 -3 26.6 70 -7.7 18.1 -2.605 -0.103
03:28 1013 29.91 842 24.86 -3.1 26.4 70 -7.7 18.1 -2.695 -0.106
03:29 1013 29.91 842 24.86 -3.1 26.4 70 -7.8 17.9 -2.707 -0.107
03:30 1013 29.91 842 24.86 -3.2 26.2 71 -7.8 18 -2.78 -0.109
03:31 1013 29.91 842 24.86 -3.2 26.2 71 -7.7 18.1 -2.792 -0.11
03:32 1013 29.91 842 24.86 -3.3 26.1 71 -7.8 18 -2.854 -0.112
03:33 1013 29.91 842 24.86 -3.3 26 71 -7.8 17.9 -2.911 -0.115
03:34 1013 29.91 842 24.86 -3.3 26 71 -7.9 17.8 -2.916 -0.115
03:35 1013 29.91 842 24.86 -3.3 26.1 71 -7.9 17.8 -2.905 -0.114
03:36 1013 29.91 842 24.86 -3.3 26.1 71 -7.9 17.8 -2.882 -0.113
03:37 1013 29.91 842 24.86 -3.3 26.1 71 -7.9 17.8 -2.905 -0.114
03:38 1013 29.91 842 24.86 -3.3 26.1 70 -7.9 17.7 -2.922 -0.115
03:39 1013 29.91 842 24.86 -3.4 25.9 70 -8 17.5 -2.939 -0.116
03:40 1013 29.91 842 24.86 -3.4 25.9 71 -8 17.7 -2.996 -0.118
03:41 1013 29.91 842 24.86 -3.4 25.9 71 -8 17.6 -2.984 -0.117
03:42 1013 29.91 842 24.86 -3.4 25.8 71 -8.1 17.5 -3.024 -0.119
03:43 1013 29.91 842 24.86 -3.4 25.8 71 -8 17.6 -3.064 -0.121
03:44 1013 29.91 842 24.86 -3.4 25.8 71 -7.9 17.8 -3.035 -0.119
03:45 1013 29.91 842 24.86 -3.4 25.8 71 -7.9 17.8 -3.024 -0.119
03:46 1013 29.91 842 24.86 -3.4 25.8 72 -7.8 17.9 -3.04 -0.12
03:47 1013 29.91 842 24.86 -3.5 25.7 72 -7.8 17.9 -3.13 -0.123
03:48 1013 29.91 842 24.86 -3.6 25.5 72 -7.9 17.7 -3.198 -0.126
03:49 1013 29.91 842 24.86 -3.7 25.4 72 -8 17.6 -3.294 -0.13
03:50 1013 29.91 842 24.86 -3.7 25.3 72 -8.1 17.5 -3.333 -0.131
03:51 1013 29.91 842 24.86 -3.7 25.3 72 -8.1 17.5 -3.356 -0.132
03:52 1013 29.91 842 24.86 -3.8 25.1 72 -8.1 17.4 -3.395 -0.134
03:53 1013 29.91 842 24.86 -3.8 25.2 72 -8 17.5 -3.406 -0.134
03:54 1013 29.91 842 24.86 -3.8 25.1 72 -8.1 17.4 -3.429 -0.135
03:55 1013 29.91 842 24.86 -3.8 25.1 72 -8.2 17.2 -3.446 -0.136
03:56 1013 29.91 842 24.86 -3.8 25.2 72 -8.2 17.3 -3.458 -0.136
03:57 1013 29.91 842 24.86 -3.8 25.1 72 -8.2 17.2 -3.452 -0.136
03:58 1013 29.91 842 24.86 -3.8 25.1 72 -8.2 17.2 -3.446 -0.136
03:59 1013 29.91 842 24.86 -3.8 25.2 71 -8.2 17.2 -3.423 -0.135
04:00 1013 29.91 842 24.86 -3.8 25.2 72 -8.2 17.2 -3.406 -0.134
04:01 1013 29.91 843 24.89 -3.7 25.3 71 -8.2 17.2 -3.411 -0.134
04:02 1013 29.91 843 24.89 -3.7 25.4 72 -8.1 17.4 -3.326 -0.131
04:03 1013 29.91 843 24.89 -3.7 25.4 72 -8 17.5 -3.286 -0.129
04:04 1013 29.91 843 24.89 -3.6 25.5 71 -8.1 17.4 -3.292 -0.13
04:05 1013 29.91 843 24.89 -3.5 25.6 71 -8.1 17.4 -3.207 -0.126
04:06 1013 29.91 843 24.89 -3.5 25.6 71 -8 17.5 -3.139 -0.124
04:07 1013 29.91 843 24.89 -3.5 25.8 70 -8.1 17.4 -3.104 -0.122
04:08 1013 29.91 843 24.89 -3.5 25.8 70 -8.1 17.4 -3.07 -0.121
04:09 1013 29.91 843 24.89 -3.4 25.9 70 -8.1 17.4 -3.047 -0.12
04:10 1014 29.94 843 24.89 -3.4 25.9 70 -8.1 17.5 -2.991 -0.118
04:11 1014 29.94 843 24.89 -3.3 26 70 -8.1 17.5 -2.934 -0.116
04:12 1014 29.94 843 24.89 -3.3 26.1 70 -8 17.6 -2.894 -0.114
04:13 1014 29.94 843 24.89 -3.2 26.2 70 -7.9 17.8 -2.86 -0.113
04:14 1013 29.91 843 24.89 -3.3 26.1 71 -7.9 17.8 -2.843 -0.112
04:15 1013 29.91 843 24.89 -3.3 26.1 71 -7.8 17.9 -2.866 -0.113
04:16 1013 29.91 843 24.89 -3.2 26.2 71 -7.8 17.9 -2.82 -0.111
04:17 1013 29.91 843 24.89 -3.2 26.3 70 -7.9 17.7 -2.803 -0.11
04:18 1013 29.91 843 24.89 -3.1 26.4 70 -7.8 18 -2.718 -0.107
04:19 1013 29.91 842 24.86 -3 26.5 70 -7.8 17.9 -2.684 -0.106
04:20 1013 29.91 842 24.86 -3 26.6 70 -7.8 18 -2.639 -0.104
04:21 1013 29.91 842 24.86 -3 26.6 70 -7.8 18 -2.593 -0.102
04:22 1013 29.91 842 24.86 -3 26.7 70 -7.8 18 -2.581 -0.102
04:23 1013 29.91 842 24.86 -3 26.7 69 -7.8 17.9 -2.558 -0.101
04:24 1013 29.91 842 24.86 -2.9 26.8 69 -7.8 17.9 -2.478 -0.098
04:25 1013 29.91 842 24.86 -2.8 26.9 68 -7.8 17.9 -2.449 -0.096
04:26 1013 29.91 842 24.86 -2.8 27 69 -7.7 18.2 -2.41 -0.095
04:27 1013 29.91 842 24.86 -2.8 26.9 70 -7.6 18.3 -2.404 -0.095
04:28 1013 29.91 842 24.86 -2.8 26.9 69 -7.7 18.1 -2.41 -0.095
04:29 1013 29.91 842 24.86 -2.8 26.9 68 -8 17.7 -2.444 -0.096
04:30 1013 29.91 842 24.86 -2.8 27 68 -7.8 17.9 -2.365 -0.093
04:31 1013 29.91 842 24.86 -2.7 27.2 67 -8 17.6 -2.286 -0.09
04:32 1013 29.91 843 24.89 -2.6 27.3 67 -8 17.6 -2.212 -0.087
04:33 1013 29.91 843 24.89 -2.6 27.3 67 -8 17.6 -2.222 -0.087
04:34 1013 29.91 843 24.89 -2.6 27.4 66 -8.1 17.4 -2.188 -0.086
04:35 1013 29.91 843 24.89 -2.6 27.4 67 -7.8 17.9 -2.149 -0.085
04:36 1013 29.91 843 24.89 -2.6 27.3 67 -8 17.6 -2.21 -0.087
04:37 1013 29.91 843 24.89 -2.6 27.3 66 -8.1 17.4 -2.25 -0.089
04:38 1014 29.94 843 24.89 -2.6 27.2 65 -8.3 17 -2.261 -0.089
04:39 1014 29.94 843 24.89 -2.6 27.4 64 -8.4 16.9 -2.232 -0.088
04:40 1014 29.94 843 24.89 -2.5 27.5 64 -8.4 16.9 -2.124 -0.084
04:41 1014 29.94 843 24.89 -2.6 27.4 65 -8.2 17.3 -2.164 -0.085
04:42 1014 29.94 843 24.89 -2.6 27.3 65 -8.3 17.1 -2.175 -0.086
04:43 1014 29.94 843 24.89 -2.6 27.3 64 -8.6 16.5 -2.198 -0.087
04:44 1014 29.94 843 24.89 -2.6 27.3 64 -8.4 16.8 -2.237 -0.088
04:45 1014 29.94 843 24.89 -2.7 27.2 65 -8.3 17.1 -2.248 -0.089
04:46 1013 29.91 843 24.89 -2.6 27.3 65 -8.3 17.1 -2.259 -0.089
04:47 1013 29.91 843 24.89 -2.7 27.1 65 -8.4 17 -2.316 -0.091
04:48 1013 29.91 843 24.89 -2.7 27.1 66 -8.2 17.2 -2.35 -0.093
04:49 1013 29.91 843 24.89 -2.8 26.9 67 -8.1 17.4 -2.412 -0.095
04:50 1013 29.91 843 24.89 -2.8 26.9 67 -8.1 17.4 -2.44 -0.096
04:51 1013 29.91 842 24.86 -2.8 26.9 66 -8.3 17 -2.423 -0.095
04:52 1013 29.91 842 24.86 -2.7 27.1 65 -8.3 17 -2.35 -0.093
04:53 1013 29.91 843 24.89 -2.7 27.1 67 -8 17.6 -2.304 -0.091
04:54 1013 29.91 843 24.89 -2.8 27 66 -8.2 17.2 -2.372 -0.093
04:55 1013 29.91 843 24.89 -2.8 27 67 -8.1 17.4 -2.366 -0.093
04:56 1013 29.91 843 24.89 -2.7 27.1 64 -8.5 16.6 -2.287 -0.09
04:57 1013 29.91 843 24.89 -2.7 27.1 66 -8.2 17.2 -2.315 -0.091
04:58 1013 29.91 843 24.89 -2.7 27.1 66 -8.2 17.2 -2.326 -0.092
04:59 1013 29.91 843 24.89 -2.8 27 66 -8.2 17.2 -2.423 -0.095
05:00 1013 29.91 843 24.89 -2.8 27 65 -8.4 16.8 -2.441 -0.096
05:01 1014 29.94 843 24.89 -2.8 26.9 67 -8.1 17.4 -2.407 -0.095
05:02 1014 29.94 843 24.89 -2.9 26.8 68 -7.9 17.8 -2.458 -0.097
05:03 1014 29.94 843 24.89 -3 26.7 67 -8.2 17.3 -2.503 -0.099
05:04 1014 29.94 843 24.89 -3 26.6 67 -8.2 17.2 -2.582 -0.102
05:05 1014 29.94 843 24.89 -2.9 26.7 68 -8.1 17.5 -2.565 -0.101
05:06 1014 29.94 843 24.89 -3 26.6 68 -8.1 17.4 -2.525 -0.099
05:07 1014 29.94 843 24.89 -3 26.7 68 -8.1 17.3 -2.548 -0.1
05:08 1014 29.94 843 24.89 -3 26.6 68 -8.1 17.5 -2.577 -0.101
05:09 1014 29.94 843 24.89 -3 26.6 68 -8.1 17.4 -2.577 -0.101
05:10 1014 29.94 843 24.89 -3 26.5 67 -8.3 17 -2.611 -0.103
05:11 1014 29.94 843 24.89 -3 26.6 66 -8.4 16.8 -2.617 -0.103
05:12 1014 29.94 843 24.89 -2.9 26.7 66 -8.5 16.8 -2.577 -0.101
05:13 1014 29.94 843 24.89 -2.9 26.8 66 -8.3 17 -2.52 -0.099
05:14 1014 29.94 843 24.89 -2.9 26.7 66 -8.3 17 -2.531 -0.1
05:15 1014 29.94 843 24.89 -3 26.7 68 -8.1 17.5 -2.548 -0.1
05:16 1014 29.94 843 24.89 -3.1 26.5 68 -8.2 17.3 -2.599 -0.102
05:17 1014 29.94 843 24.89 -3.1 26.4 69 -7.9 17.7 -2.68 -0.106
05:18 1014 29.94 843 24.89 -3.1 26.4 67 -8.5 16.7 -2.736 -0.108
05:19 1014 29.94 843 24.89 -3.1 26.5 67 -8.4 16.9 -2.697 -0.106
05:20 1014 29.94 843 24.89 -3 26.5 67 -8.4 16.9 -2.646 -0.104
05:21 1014 29.94 843 24.89 -3.1 26.5 68 -8.2 17.2 -2.641 -0.104
05:22 1014 29.94 843 24.89 -3 26.6 66 -8.5 16.7 -2.646 -0.104
05:23 1014 29.94 843 24.89 -3 26.6 68 -8.1 17.4 -2.63 -0.104
05:24 1014 29.94 843 24.89 -3 26.6 67 -8.4 16.9 -2.602 -0.102
05:25 1014 29.94 843 24.89 -3 26.6 69 -8 17.7 -2.641 -0.104
05:26 1014 29.94 843 24.89 -3.1 26.4 68 -8.2 17.2 -2.681 -0.106
05:27 1014 29.94 843 24.89 -3.1 26.4 67 -8.4 16.9 -2.681 -0.106
05:28 1014 29.94 843 24.89 -3.1 26.5 67 -8.4 16.9 -2.676 -0.105
05:29 1014 29.94 843 24.89 -3.1 26.5 67 -8.3 17.1 -2.681 -0.106
05:30 1014 29.94 843 24.89 -3.1 26.5 67 -8.3 17.1 -2.647 -0.104
05:31 1014 29.94 843 24.89 -3.1 26.5 68 -8.2 17.2 -2.675 -0.105
05:32 1014 29.94 843 24.89 -3.1 26.4 67 -8.4 16.9 -2.647 -0.104
05:33 1014 29.94 843 24.89 -3.1 26.4 67 -8.3 17 -2.641 -0.104
05:34 1014 29.94 843 24.89 -3.1 26.4 67 -8.4 16.9 -2.676 -0.105
05:35 1014 29.94 843 24.89 -3.1 26.4 69 -8.1 17.4 -2.721 -0.107
05:36 1014 29.94 843 24.89 -3.2 26.3 68 -8.2 17.3 -2.733 -0.108
05:37 1014 29.94 843 24.89 -3.2 26.3 69 -8.1 17.5 -2.738 -0.108
05:38 1014 29.94 843 24.89 -3.2 26.2 69 -8.1 17.3 -2.749 -0.108
05:39 1014 29.94 843 24.89 -3.2 26.3 70 -7.9 17.7 -2.771 -0.109
05:40 1014 29.94 843 24.89 -3.3 26.1 71 -7.8 18 -2.816 -0.111
05:41 1014 29.94 843 24.89 -3.3 26 72 -7.6 18.3 -2.878 -0.113
05:42 1014 29.94 843 24.89 -3.4 25.8 72 -7.7 18.1 -2.958 -0.116
05:43 1014 29.94 843 24.89 -3.5 25.8 72 -7.7 18.1 -3.003 -0.118
05:44 1014 29.94 843 24.89 -3.5 25.8 73 -7.7 18.2 -3.031 -0.119
05:45 1014 29.94 843 24.89 -3.5 25.8 72 -7.8 18 -3.048 -0.12
05:46 1014 29.94 843 24.89 -3.5 25.7 72 -7.8 18 -3.042 -0.12
05:47 1014 29.94 843 24.89 -3.5 25.8 72 -7.9 17.8 -3.07 -0.121
05:48 1014 29.94 843 24.89 -3.4 25.9 71 -7.9 17.8 -3.036 -0.12
05:49 1014 29.94 843 24.89 -3.4 25.9 72 -7.8 18 -2.99 -0.118
05:50 1014 29.94 843 24.89 -3.3 26 71 -8 17.7 -2.968 -0.117
05:51 1014 29.94 843 24.89 -3.3 26 71 -7.9 17.8 -2.922 -0.115
05:52 1014 29.94 843 24.89 -3.3 26 69 -8.2 17.2 -2.939 -0.116
05:53 1014 29.94 843 24.89 -3.2 26.2 68 -8.3 17.1 -2.888 -0.114
05:54 1014 29.94 843 24.89 -3.2 26.2 69 -8.2 17.2 -2.831 -0.111
05:55 1014 29.94 843 24.89 -3.2 26.2 69 -8.2 17.3 -2.814 -0.111
05:56 1014 29.94 843 24.89 -3.1 26.4 68 -8.2 17.2 -2.729 -0.107
05:57 1014 29.94 843 24.89 -3.1 26.4 69 -8.1 17.5 -2.712 -0.107
05:58 1014 29.94 843 24.89 -3.1 26.5 68 -8.1 17.4 -2.655 -0.105
05:59 1014 29.94 843 24.89 -3 26.6 69 -7.9 17.7 -2.638 -0.104
06:00 1014 29.94 843 24.89 -3 26.6 66 -8.4 16.9 -2.61 -0.103
06:01 1014 29.94 843 24.89 -2.9 26.7 66 -8.4 16.9 -2.547 -0.1
06:02 1014 29.94 843 24.89 -2.8 26.9 66 -8.3 17 -2.474 -0.097
06:03 1014 29.94 843 24.89 -2.9 26.9 66 -8.4 16.9 -2.423 -0.095
06:04 1014 29.94 843 24.89 -2.8 26.9 67 -8.2 17.2 -2.411 -0.095
06:05 1014 29.94 843 24.89 -2.8 26.9 68 -7.9 17.8 -2.394 -0.094
06:06 1014 29.94 843 24.89 -2.8 26.9 68 -8 17.7 -2.44 -0.096
06:07 1014 29.94 843 24.89 -2.9 26.8 70 -7.6 18.4 -2.456 -0.097
06:08 1014 29.94 843 24.89 -2.9 26.9 67 -8.1 17.3 -2.434 -0.096
06:09 1014 29.94 843 24.89 -2.8 26.9 66 -8.3 17.1 -2.4 -0.094
06:10 1014 29.94 843 24.89 -2.8 27 68 -7.9 17.8 -2.383 -0.094
06:11 1014 29.94 843 24.89 -2.7 27.1 67 -8.1 17.4 -2.343 -0.092
06:12 1014 29.94 843 24.89 -2.7 27.1 66 -8.2 17.3 -2.349 -0.092
06:13 1014 29.94 843 24.89 -2.7 27.1 67 -8.1 17.4 -2.343 -0.092
06:14 1014 29.94 843 24.89 -2.7 27.1 66 -8.2 17.3 -2.286 -0.09
06:15 1014 29.94 843 24.89 -2.7 27.1 67 -8.1 17.5 -2.354 -0.093
06:16 1014 29.94 843 24.89 -2.7 27.1 68 -7.8 18 -2.326 -0.092
06:17 1014 29.94 843 24.89 -2.7 27.1 69 -7.7 18.1 -2.292 -0.09
06:18 1014 29.94 843 24.89 -2.8 27 70 -7.5 18.5 -2.32 -0.091
06:19 1014 29.94 843 24.89 -2.8 27 68 -7.9 17.7 -2.366 -0.093
06:20 1014 29.94 843 24.89 -2.7 27.1 67 -8 17.5 -2.298 -0.09
06:21 1014 29.94 843 24.89 -2.7 27.2 68 -7.8 17.9 -2.292 -0.09
06:22 1014 29.94 843 24.89 -2.7 27.2 67 -7.9 17.8 -2.275 -0.09
06:23 1014 29.94 843 24.89 -2.7 27.2 67 -8 17.6 -2.269 -0.089
06:24 1014 29.94 843 24.89 -2.7 27.2 67 -8 17.5 -2.235 -0.088
06:25 1014 29.94 843 24.89 -2.6 27.3 65 -8.3 17.1 -2.201 -0.087
06:26 1014 29.94 843 24.89 -2.5 27.4 65 -8.2 17.2 -2.133 -0.084
06:27 1014 29.94 843 24.89 -2.5 27.6 66 -8 17.6 -2.059 -0.081
06:28 1014 29.94 843 24.89 -2.4 27.6 67 -7.8 18 -2.02 -0.08
06:29 1014 29.94 843 24.89 -2.4 27.6 66 -7.9 17.8 -2.031 -0.08
06:30 1014 29.94 844 24.92 -2.4 27.6 66 -7.8 17.9 -2.008 -0.079
06:31 1014 29.94 844 24.92 -2.4 27.6 66 -8 17.7 -2.014 -0.079
06:32 1014 29.94 844 24.92 -2.4 27.7 65 -8.2 17.3 -1.98 -0.078
06:33 1014 29.94 844 24.92 -2.3 27.8 66 -7.9 17.8 -1.901 -0.075
06:34 1014 29.94 844 24.92 -2.4 27.7 64 -8.2 17.2 -1.929 -0.076
06:35 1014 29.94 844 24.92 -2.4 27.8 64 -8.3 17.1 -1.94 -0.076
06:36 1015 29.97 844 24.92 -2.3 27.9 64 -8.2 17.2 -1.85 -0.073
06:37 1015 29.97 844 24.92 -2.3 27.9 63 -8.3 17 -1.889 -0.074
06:38 1015 29.97 844 24.92 -2.3 27.9 64 -8.2 17.2 -1.855 -0.073
06:39 1015 29.97 844 24.92 -2.2 28 64 -8.2 17.2 -1.8 -0.071
06:40 1015 29.97 844 24.92 -2.2 28 66 -7.8 18 -1.789 -0.07
06:41 1015 29.97 844 24.92 -2.3 27.9 65 -8 17.6 -1.823 -0.072
06:42 1015 29.97 844 24.92 -2.3 27.8 66 -7.8 18 -1.879 -0.074
06:43 1015 29.97 844 24.92 -2.3 27.8 67 -7.7 18.2 -1.93 -0.076
06:44 1015 29.97 844 24.92 -2.4 27.8 66 -7.9 17.8 -1.981 -0.078
06:45 1015 29.97 844 24.92 -2.4 27.7 67 -7.7 18.2 -1.958 -0.077
06:46 1015 29.97 844 24.92 -2.4 27.7 66 -7.9 17.8 -1.97 -0.078
06:47 1015 29.97 844 24.92 -2.4 27.8 66 -7.8 17.9 -1.941 -0.076
06:48 1015 29.97 844 24.92 -2.3 27.8 68 -7.5 18.6 -1.948 -0.077
06:49 1015 29.97 844 24.92 -2.4 27.6 67 -7.8 17.9 -1.959 -0.077
06:50 1015 29.97 844 24.92 -2.4 27.6 69 -7.5 18.6 -2.027 -0.08
06:51 1015 29.97 844 24.92 -2.5 27.5 67 -7.7 18.1 -2.027 -0.08
06:52 1015 29.97 844 24.92 -2.5 27.5 69 -7.4 18.7 -2.084 -0.082
06:53 1015 29.97 844 24.92 -2.5 27.5 70 -7.3 18.8 -2.123 -0.084
06:54 1015 29.97 844 24.92 -2.6 27.4 69 -7.5 18.5 -2.129 -0.084
06:55 1015 29.97 844 24.92 -2.6 27.4 70 -7.3 18.8 -2.146 -0.084
06:56 1015 29.97 844 24.92 -2.6 27.4 68 -7.7 18.2 -2.134 -0.084
06:57 1015 29.97 844 24.92 -2.5 27.4 68 -7.6 18.4 -2.162 -0.085
06:58 1015 29.97 844 24.92 -2.6 27.4 69 -7.5 18.4 -2.162 -0.085
06:59 1015 29.97 844 24.92 -2.5 27.4 67 -7.8 17.9 -2.1 -0.083
07:00 1015 29.97 844 24.92 -2.5 27.5 67 -7.8 18 -2.077 -0.082
07:01 1015 29.97 844 24.92 -2.4 27.7 67 -7.8 18 -2.021 -0.08
07:02 1015 29.97 844 24.92 -2.4 27.7 63 -8.5 16.7 -1.969 -0.078
07:03 1015 29.97 844 24.92 -2.4 27.7 66 -7.9 17.8 -1.981 -0.078
07:04 1015 29.97 844 24.92 -2.4 27.7 68 -7.5 18.4 -1.975 -0.078
07:05 1015 29.97 844 24.92 -2.4 27.6 67 -7.7 18.1 -2.009 -0.079
07:06 1015 29.97 844 24.92 -2.5 27.6 68 -7.6 18.3 -2.026 -0.08
07:07 1015 29.97 844 24.92 -2.5 27.5 69 -7.5 18.5 -2.06 -0.081
07:08 1015 29.97 844 24.92 -2.5 27.4 69 -7.5 18.6 -2.077 -0.082
07:09 1015 29.97 844 24.92 -2.5 27.4 70 -7.3 18.9 -2.094 -0.082
07:10 1015 29.97 844 24.92 -2.6 27.4 68 -7.6 18.3 -2.173 -0.086
07:11 1015 29.97 844 24.92 -2.6 27.4 71 -7.2 19.1 -2.151 -0.085
07:12 1015 29.97 844 24.92 -2.6 27.4 70 -7.3 18.8 -2.123 -0.084
07:13 1015 29.97 844 24.92 -2.5 27.4 68 -7.7 18.1 -2.14 -0.084
07:14 1015 29.97 844 24.92 -2.5 27.4 69 -7.5 18.5 -2.118 -0.083
07:15 1015 29.97 844 24.92 -2.5 27.5 69 -7.5 18.6 -2.113 -0.083
07:16 1015 29.97 844 24.92 -2.5 27.5 67 -7.9 17.8 -2.062 -0.081
07:17 1015 29.97 844 24.92 -2.4 27.6 68 -7.6 18.4 -2.039 -0.08
07:18 1015 29.97 844 24.92 -2.4 27.6 67 -7.8 18 -1.999 -0.079
07:19 1015 29.97 844 24.92 -2.4 27.7 67 -7.8 18 -1.976 -0.078
07:20 1015 29.97 844 24.92 -2.4 27.7 68 -7.6 18.4 -1.949 -0.077
07:21 1015 29.97 844 24.92 -2.4 27.7 67 -7.7 18.1 -2 -0.079
07:22 1015 29.97 844 24.92 -2.4 27.6 67 -7.8 18 -2.017 -0.079
07:23 1015 29.97 844 24.92 -2.4 27.6 68 -7.6 18.3 -1.984 -0.078
07:24 1015 29.97 844 24.92 -2.4 27.6 71 -7.1 19.3 -1.967 -0.077
07:25 1015 29.97 844 24.92 -2.4 27.6 68 -7.4 18.6 -1.972 -0.078
07:26 1015 29.97 844 24.92 -2.4 27.7 69 -7.4 18.7 -1.95 -0.077
07:27 1015 29.97 845 24.95 -2.4 27.7 68 -7.5 18.6 -1.939 -0.076
07:28 1015 29.97 845 24.95 -2.3 27.8 67 -7.7 18.1 -1.928 -0.076
07:29 1015 29.97 845 24.95 -2.3 27.9 65 -8 17.6 -1.853 -0.073
07:30 1015 29.97 845 24.95 -2.2 28.1 66 -7.7 18.2 -1.779 -0.07
07:31 1015 29.97 845 24.95 -2.1 28.2 66 -7.7 18.2 -1.734 -0.068
07:32 1015 29.97 845 24.95 -2.2 28.1 66 -7.6 18.3 -1.712 -0.067
07:33 1015 29.97 845 24.95 -2.1 28.1 68 -7.3 18.8 -1.735 -0.068
07:34 1015 29.97 845 24.95 -2.1 28.2 66 -7.6 18.3 -1.689 -0.066
07:35 1015 29.97 845 24.95 -2.1 28.2 66 -7.7 18.2 -1.679 -0.066
07:36 1015 29.97 845 24.95 -2.1 28.2 65 -7.8 18 -1.713 -0.067
07:37 1016 30 845 24.95 -2 28.3 65 -7.8 18 -1.656 -0.065
07:38 1015 29.97 845 24.95 -2.1 28.3 65 -7.7 18.1 -1.662 -0.065
07:39 1016 30 845 24.95 -2.1 28.3 65 -7.7 18.1 -1.634 -0.064
07:40 1016 30 845 24.95 -2.1 28.2 66 -7.6 18.4 -1.668 -0.066
07:41 1016 30 845 24.95 -2.1 28.2 67 -7.3 18.8 -1.679 -0.066
07:42 1016 30 845 24.95 -2.1 28.2 64 -8 17.7 -1.713 -0.067
07:43 1016 30 845 24.95 -2.1 28.3 64 -7.9 17.8 -1.662 -0.065
07:44 1016 30 845 24.95 -2 28.4 61 -8.5 16.7 -1.617 -0.064
07:45 1016 30 845 24.95 -2 28.5 63 -8 17.5 -1.544 -0.061
07:46 1016 30 845 24.95 -2 28.5 63 -8.1 17.4 -1.544 -0.061
07:47 1016 30 845 24.95 -1.9 28.5 62 -8.3 17.1 -1.532 -0.06
07:48 1016 30 845 24.95 -1.9 28.5 64 -7.9 17.8 -1.493 -0.059
07:49 1016 30 845 24.95 -1.9 28.5 64 -7.9 17.8 -1.47 -0.058
07:50 1016 30 845 24.95 -2 28.5 65 -7.7 18.1 -1.476 -0.058
07:51 1016 30 845 24.95 -2 28.4 66 -7.5 18.5 -1.533 -0.06
07:52 1016 30 845 24.95 -2 28.4 64 -7.9 17.8 -1.561 -0.061
07:53 1016 30 845 24.95 -2 28.4 65 -7.8 18 -1.578 -0.062
07:54 1016 30 845 24.95 -2 28.4 67 -7.4 18.6 -1.533 -0.06
07:55 1016 30 845 24.95 -2 28.4 66 -7.5 18.5 -1.578 -0.062
07:56 1016 30 845 24.95 -2 28.5 63 -8.2 17.3 -1.584 -0.062
07:57 1016 30 845 24.95 -1.9 28.5 62 -8.2 17.3 -1.505 -0.059
07:58 1016 30 845 24.95 -1.9 28.6 63 -7.9 17.7 -1.448 -0.057
07:59 1016 30 845 24.95 -1.9 28.6 60 -8.5 16.6 -1.448 -0.057
08:00 1016 30 845 24.95 -1.8 28.8 62 -8.2 17.3 -1.386 -0.055
08:01 1016 30 845 24.95 -1.8 28.8 61 -8.4 16.9 -1.369 -0.054
08:02 1016 30 845 24.95 -1.8 28.8 63 -7.8 17.9 -1.352 -0.053
08:03 1016 30 845 24.95 -1.8 28.8 60 -8.5 16.7 -1.346 -0.053
08:04 1016 30 845 24.95 -1.7 28.9 59 -8.8 16.1 -1.312 -0.052
08:05 1016 30 845 24.95 -1.6 29 59 -8.5 16.6 -1.233 -0.049
08:06 1016 30 845 24.95 -1.7 29 60 -8.3 17 -1.216 -0.048
08:07 1016 30 845 24.95 -1.7 29 63 -7.8 18 -1.216 -0.048
08:08 1016 30 845 24.95 -1.7 29 62 -8 17.5 -1.238 -0.049
08:09 1016 30 845 24.95 -1.7 29 64 -7.7 18.2 -1.204 -0.047
08:10 1016 30 845 24.95 -1.7 29 61 -8.3 17.1 -1.216 -0.048
08:11 1016 30 845 24.95 -1.6 29.1 63 -7.9 17.8 -1.199 -0.047
08:12 1016 30 845 24.95 -1.6 29 64 -7.6 18.4 -1.193 -0.047
08:13 1016 30 845 24.95 -1.6 29 66 -7.3 18.9 -1.21 -0.048
08:14 1016 30 845 24.95 -1.7 29 61 -8.3 17 -1.21 -0.048
08:15 1016 30 845 24.95 -1.6 29.1 60 -8.4 16.9 -1.21 -0.048
08:16 1016 30 845 24.95 -1.6 29.2 64 -7.6 18.3 -1.063 -0.042
08:17 1016 30 845 24.95 -1.6 29.2 62 -7.9 17.7 -1.108 -0.044
08:18 1016 30 845 24.95 -1.5 29.2 62 -7.9 17.8 -1.114 -0.044
08:19 1016 30 845 24.95 -1.5 29.2 63 -7.7 18.1 -1.063 -0.042
08:20 1016 30 845 24.95 -1.5 29.3 65 -7.3 18.9 -1.074 -0.042
08:21 1016 30 845 24.95 -1.5 29.3 65 -7.2 19 -1.052 -0.041
08:22 1016 30 845 24.95 -1.6 29.2 62 -8 17.5 -1.08 -0.043
08:23 1016 30 845 24.95 -1.4 29.4 59 -8.5 16.8 -1.046 -0.041
08:24 1016 30 845 24.95 -1.4 29.5 62 -7.8 18 -.944 -0.037
08:25 1016 30 845 24.95 -1.4 29.5 61 -8 17.6 -.927 -0.036
08:26 1016 30 845 24.95 -1.4 29.5 61 -7.9 17.7 -.882 -0.035
08:27 1016 30 845 24.95 -1.4 29.5 61 -8 17.6 -.91 -0.036
08:28 1016 30 845 24.95 -1.3 29.6 62 -7.7 18.1 -.916 -0.036
08:29 1016 30 845 24.95 -1.4 29.6 59 -8.3 17.1 -.927 -0.036
08:30 1016 30 845 24.95 -1.3 29.7 59 -8.4 16.9 -.853 -0.034
08:31 1016 30 845 24.95 -1.3 29.7 62 -7.8 18 -.819 -0.032
08:32 1016 30 845 24.95 -1.2 29.8 59 -8.3 17.1 -.763 -0.03
08:33 1016 30 845 24.95 -1.3 29.8 57 -8.7 16.3 -.768 -0.03
08:34 1016 30 845 24.95 -1.2 29.8 61 -7.7 18.1 -.746 -0.029
08:35 1016 30 845 24.95 -1.2 29.8 56 -8.8 16.1 -.757 -0.03
08:36 1016 30 845 24.95 -1.2 29.8 61 -7.7 18.1 -.735 -0.029
08:37 1016 30 845 24.95 -1.2 29.9 54 -9.4 15 -.724 -0.029
08:38 1016 30 845 24.95 -1.1 29.9 62 -7.5 18.5 -.69 -0.027
08:39 1016 30 845 24.95 -1.1 29.9 57 -8.6 16.6 -.685 -0.027
08:40 1016 30 845 24.95 -1.1 30 57 -8.5 16.6 -.674 -0.027
08:41 1016 30 845 24.95 -1.1 30 59 -8.2 17.2 -.646 -0.025
08:42 1016 30 845 24.95 -1.1 29.9 55 -9 15.8 -.675 -0.027
08:43 1016 30 845 24.95 -1.1 30 59 -8.1 17.4 -.664 -0.026
08:44 1016 30 845 24.95 -1.1 30 59 -8.1 17.4 -.658 -0.026
08:45 1016 30 845 24.95 -1.1 29.9 61 -7.8 18 -.676 -0.027
08:46 1016 30 845 24.95 -1.1 30 57 -8.5 16.7 -.682 -0.027
08:47 1016 30 845 24.95 -1.1 30.1 59 -8 17.6 -.619 -0.024
08:48 1016 30 845 24.95 -1.1 30 58 -8.2 17.2 -.631 -0.025
08:49 1016 30 845 24.95 -1.1 30 59 -8.2 17.2 -.609 -0.024
08:50 1016 30 845 24.95 -1.1 30.1 60 -7.9 17.8 -.609 -0.024
08:51 1016 30 846 24.98 -1.1 30.1 57 -8.6 16.5 -.603 -0.024
08:52 1016 30 846 24.98 -1 30.2 55 -8.9 16 -.603 -0.024
08:53 1016 30 846 24.98 -1 30.2 57 -8.4 16.9 -.552 -0.022
08:54 1016 30 846 24.98 -1 30.3 59 -8 17.5 -.57 -0.022
08:55 1016 30 846 24.98 -1 30.2 57 -8.6 16.5 -.564 -0.022
08:56 1016 30 846 24.98 -0.9 30.3 53 -9.3 15.2 -.547 -0.022
08:57 1016 30 846 24.98 -0.9 30.3 56 -8.6 16.6 -.502 -0.02
08:58 1016 30 846 24.98 -0.9 30.3 60 -7.9 17.9 -.479 -0.019
08:59 1016 30 846 24.98 -1 30.3 58 -8.3 17.1 -.491 -0.019
09:00 1016 30 846 24.98 -0.9 30.3 58 -8.2 17.2 -.48 -0.019
09:01 1016 30 846 24.98 -1 30.3 61 -7.5 18.5 -.451 -0.018
09:02 1016 30 846 24.98 -0.9 30.4 60 -7.6 18.2 -.451 -0.018
09:03 1016 30 846 24.98 -0.9 30.4 57 -8.5 16.7 -.491 -0.019
09:04 1017 30.03 846 24.98 -0.9 30.4 57 -8.3 17 -.417 -0.016
09:05 1017 30.03 846 24.98 -0.9 30.4 56 -8.7 16.4 -.412 -0.016
09:06 1017 30.03 846 24.98 -0.8 30.5 56 -8.6 16.6 -.378 -0.015
09:07 1017 30.03 846 24.98 -0.8 30.5 58 -8 17.6 -.361 -0.014
09:08 1017 30.03 846 24.98 -0.8 30.5 58 -8 17.5 -.344 -0.014
09:09 1017 30.03 846 24.98 -0.8 30.6 61 -7.4 18.7 -.35 -0.014
09:10 1017 30.03 846 24.98 -0.8 30.5 59 -7.9 17.9 -.361 -0.014
09:11 1017 30.03 846 24.98 -0.8 30.6 57 -8.3 17 -.35 -0.014
09:12 1017 30.03 846 24.98 -0.8 30.6 56 -8.6 16.6 -.321 -0.013
09:13 1017 30.03 846 24.98 -0.8 30.6 56 -8.4 16.8 -.265 -0.01
09:14 1017 30.03 846 24.98 -0.7 30.7 62 -7.2 19 -.27 -0.011
09:15 1017 30.03 846 24.98 -0.7 30.7 58 -8 17.5 -.22 -0.009
09:16 1017 30.03 846 24.98 -0.7 30.7 59 -7.7 18.1 -.191 -0.008
09:17 1017 30.03 846 24.98 -0.7 30.8 59 -7.7 18.2 -.191 -0.008
09:18 1017 30.03 846 24.98 -0.7 30.8 60 -7.6 18.4 -.186 -0.007
09:19 1017 30.03 846 24.98 -0.6 30.8 52 -9.4 15.2 -.186 -0.007
09:20 1017 30.03 846 24.98 -0.6 30.9 58 -7.9 17.8 -.14 -0.006
09:21 1017 30.03 846 24.98 -0.6 30.9 52 -9.2 15.4 -.106 -0.004
09:22 1017 30.03 846 24.98 -0.6 31 56 -8.2 17.2 -.095 -0.004
09:23 1017 30.03 846 24.98 -0.6 31 61 -7.3 18.9 -.089 -0.004
09:24 1017 30.03 846 24.98 -0.6 31 65 -6.3 20.7 -.084 -0.003
09:25 1017 30.03 846 24.98 -0.6 30.9 59 -7.7 18.2 -.101 -0.004
09:26 1017 30.03 846 24.98 -0.6 31 58 -7.8 18 -.084 -0.003
09:27 1017 30.03 846 24.98 -0.6 31 58 -7.8 17.9 -.038 -0.001
09:28 1017 30.03 846 24.98 -0.5 31.1 60 -7.4 18.7 -.021 -0.001
09:29 1017 30.03 846 24.98 -0.5 31.1 57 -8 17.7 -.016 -0.001
09:30 1017 30.03 846 24.98 -0.5 31.1 55 -8.6 16.5 -.044 -0.002
09:31 1017 30.03 846 24.98 -0.5 31.1 55 -8.5 16.8 .001 0
09:32 1017 30.03 846 24.98 -0.5 31.1 58 -7.8 18 .024 0.001
09:33 1017 30.03 846 24.98 -0.4 31.2 53 -8.9 16.1 .081 0.003
09:34 1017 30.03 846 24.98 -0.4 31.2 56 -8.1 17.4 .109 0.004
09:35 1017 30.03 846 24.98 -0.4 31.3 58 -7.6 18.3 .131 0.005
09:36 1017 30.03 846 24.98 -0.4 31.3 60 -7.2 19.1 .131 0.005
09:37 1017 30.03 846 24.98 -0.4 31.3 58 -7.6 18.3 .126 0.005
09:38 1017 30.03 846 24.98 -0.4 31.3 58 -7.7 18.2 .137 0.005
09:39 1017 30.03 846 24.98 -0.4 31.3 59 -7.4 18.8 .137 0.005
09:40 1017 30.03 846 24.98 -0.4 31.3 60 -7.2 19 .154 0.006
09:41 1017 30.03 846 24.98 -0.4 31.3 55 -8.2 17.2 .147 0.006
09:42 1017 30.03 846 24.98 -0.4 31.3 63 -6.5 20.3 .096 0.004
09:43 1017 30.03 846 24.98 -0.3 31.4 62 -6.8 19.8 .141 0.006
09:44 1017 30.03 846 24.98 -0.3 31.5 60 -7.2 19 .208 0.008
09:45 1017 30.03 846 24.98 -0.3 31.4 59 -7.4 18.7 .191 0.008
09:46 1017 30.03 846 24.98 -0.3 31.5 56 -7.9 17.7 .191 0.008
09:47 1017 30.03 846 24.98 -0.3 31.5 58 -7.6 18.3 .179 0.007
09:48 1017 30.03 846 24.98 -0.3 31.5 57 -7.8 18 .207 0.008
09:49 1017 30.03 846 24.98 -0.3 31.5 57 -7.7 18.1 .19 0.007
09:50 1017 30.03 846 24.98 -0.3 31.4 61 -6.9 19.6 .167 0.007
09:51 1017 30.03 846 24.98 -0.3 31.4 59 -7.3 18.8 .184 0.007
09:52 1017 30.03 846 24.98 -0.3 31.4 56 -8.1 17.4 .133 0.005
09:53 1017 30.03 846 24.98 -0.3 31.4 58 -7.6 18.3 .189 0.007
09:54 1017 30.03 846 24.98 -0.3 31.5 61 -6.8 19.7 .166 0.007
09:55 1017 30.03 846 24.98 -0.4 31.3 61 -7.1 19.3 .183 0.007
09:56 1017 30.03 846 24.98 -0.3 31.4 58 -7.6 18.3 .172 0.007
09:57 1017 30.03 846 24.98 -0.3 31.4 60 -7.1 19.2 .138 0.005
09:58 1017 30.03 846 24.98 -0.3 31.4 59 -7.4 18.6 .172 0.007
09:59 1017 30.03 846 24.98 -0.3 31.4 56 -8.1 17.4 .137 0.005
10:00 1017 30.03 846 24.98 -0.3 31.5 57 -7.7 18.1 .16 0.006
10:01 1017 30.03 846 24.98 -0.3 31.5 57 -7.7 18.1 .228 0.009
10:02 1017 30.03 846 24.98 -0.3 31.5 57 -7.7 18.1 .25 0.01
10:03 1017 30.03 846 24.98 -0.3 31.5 63 -6.5 20.3 .29 0.011
10:04 1017 30.03 846 24.98 -0.3 31.5 61 -7 19.5 .262 0.01
10:05 1017 30.03 846 24.98 -0.2 31.6 59 -7.4 18.7 .261 0.01
10:06 1017 30.03 846 24.98 -0.2 31.6 63 -6.5 20.3 .278 0.011
10:07 1017 30.03 846 24.98 -0.2 31.6 59 -7.2 19 .278 0.011
10:08 1017 30.03 846 24.98 -0.2 31.6 58 -7.5 18.5 .271 0.011
10:09 1017 30.03 846 24.98 -0.2 31.6 56 -8 17.6 .3 0.012
10:10 1017 30.03 846 24.98 -0.2 31.7 60 -7 19.4 .322 0.013
10:11 1017 30.03 846 24.98 -0.1 31.8 64 -6.1 21 .339 0.013
10:12 1017 30.03 846 24.98 -0.1 31.7 59 -7.2 19 .379 0.015
10:13 1017 30.03 846 24.98 -0.2 31.7 60 -7 19.3 .327 0.013
10:14 1017 30.03 846 24.98 -0.1 31.7 67 -5.5 22.1 .372 0.015
10:15 1017 30.03 847 25.01 -0.1 31.8 60 -7 19.4 .417 0.016
10:16 1017 30.03 847 25.01 -0.1 31.9 60 -6.9 19.5 .422 0.017
10:17 1017 30.03 847 25.01 -0 31.9 58 -7.4 18.6 .467 0.018
10:18 1017 30.03 847 25.01 0 32 60 -6.9 19.6 .507 0.02
10:19 1017 30.03 847 25.01 0 32.1 60 -6.9 19.5 .506 0.02
10:20 1017 30.03 846 24.98 0 32.1 55 -7.9 17.7 .489 0.019
10:21 1017 30.03 847 25.01 0 32 55 -8.1 17.4 .449 0.018
10:22 1017 30.03 847 25.01 0 32 58 -7.2 19 .5 0.02
10:23 1017 30.03 847 25.01 0 32.1 55 -8.1 17.5 .477 0.019
10:24 1017 30.03 847 25.01 0 32 51 -9.1 15.6 .494 0.019
10:25 1017 30.03 847 25.01 0 32.1 57 -7.5 18.6 .494 0.019
10:26 1017 30.03 847 25.01 0.1 32.2 55 -7.8 17.9 .562 0.022
10:27 1017 30.03 847 25.01 0.1 32.3 56 -7.6 18.3 .59 0.023
10:28 1017 30.03 846 24.98 0.2 32.3 56 -7.6 18.4 .623 0.025
10:29 1017 30.03 847 25.01 0.2 32.3 54 -8.1 17.5 .589 0.023
10:30 1017 30.03 847 25.01 0.2 32.3 54 -8 17.6 .64 0.025
10:31 1017 30.03 847 25.01 0.2 32.3 53 -8.3 17 .6 0.024
10:32 1017 30.03 847 25.01 0.2 32.3 57 -7.5 18.6 .634 0.025
10:33 1017 30.03 847 25.01 0.1 32.2 51 -8.8 16.2 .583 0.023
10:34 1017 30.03 847 25.01 0.1 32.2 49 -9.3 15.2 .549 0.022
10:35 1017 30.03 847 25.01 0.1 32.2 55 -7.8 17.9 .51 0.02
10:36 1017 30.03 847 25.01 0.1 32.1 51 -8.9 15.9 .476 0.019
10:37 1017 30.03 847 25.01 0.1 32.2 48 -9.7 14.6 .515 0.02
10:38 1017 30.03 847 25.01 0.2 32.3 54 -8.1 17.4 .555 0.022
10:39 1018 30.06 847 25.01 0.2 32.3 53 -8.4 16.9 .657 0.026
10:40 1018 30.06 847 25.01 0.3 32.5 51 -8.6 16.5 .69 0.027
10:41 1018 30.06 847 25.01 0.3 32.6 56 -7.5 18.4 .775 0.031
10:42 1018 30.06 847 25.01 0.4 32.7 53 -8.2 17.3 .792 0.031
10:43 1018 30.06 847 25.01 0.4 32.6 55 -7.7 18.1 .804 0.032
10:44 1017 30.03 847 25.01 0.3 32.6 51 -8.6 16.6 .73 0.029
10:45 1017 30.03 847 25.01 0.3 32.5 48 -9.5 14.8 .753 0.03
10:46 1018 30.06 847 25.01 0.3 32.6 56 -7.4 18.7 .741 0.029
10:47 1018 30.06 847 25.01 0.2 32.4 50 -9.1 15.6 .673 0.026
10:48 1018 30.06 847 25.01 0.2 32.4 50 -9 15.8 .662 0.026
10:49 1018 30.06 847 25.01 0.2 32.4 49 -9.3 15.3 .662 0.026
10:50 1018 30.06 847 25.01 0.2 32.4 50 -8.9 16 .662 0.026
10:51 1018 30.06 847 25.01 0.2 32.4 49 -9.3 15.2 .656 0.026
10:52 1018 30.06 847 25.01 0.3 32.5 48 -9.4 15 .713 0.028
10:53 1018 30.06 847 25.01 0.4 32.7 49 -9.1 15.6 .792 0.031
10:54 1018 30.06 847 25.01 0.4 32.8 53 -8.2 17.3 .837 0.033
10:55 1018 30.06 847 25.01 0.5 32.8 52 -8.3 17 .877 0.035
10:56 1018 30.06 847 25.01 0.5 32.9 51 -8.6 16.5 .928 0.037
10:57 1018 30.06 847 25.01 0.5 32.9 54 -7.7 18.1 .939 0.037
10:58 1018 30.06 847 25.01 0.5 33 52 -8.2 17.2 1.047 0.041
10:59 1018 30.06 847 25.01 0.7 33.2 51 -8.3 17 1.081 0.043
11:00 1018 30.06 847 25.01 0.7 33.3 42 -10.8 12.5 1.126 0.044
11:01 1018 30.06 847 25.01 0.7 33.3 50 -8.6 16.5 1.171 0.046
11:02 1018 30.06 847 25.01 0.8 33.4 51 -8.3 17 1.217 0.048
11:03 1018 30.06 847 25.01 0.8 33.5 51 -8.3 17 1.279 0.05
11:04 1018 30.06 847 25.01 0.8 33.4 51 -8.2 17.2 1.256 0.049
11:05 1018 30.06 847 25.01 0.8 33.4 50 -8.4 16.9 1.234 0.049
11:06 1018 30.06 847 25.01 0.7 33.2 51 -8.3 17.1 1.166 0.046
11:07 1018 30.06 847 25.01 0.7 33.2 54 -7.6 18.3 1.086 0.043
11:08 1018 30.06 847 25.01 0.6 33 51 -8.4 16.9 1.03 0.041
11:09 1018 30.06 847 25.01 0.6 33 55 -7.5 18.5 1.034 0.041
11:10 1018 30.06 847 25.01 0.6 33.1 54 -7.8 18 1.091 0.043
11:11 1018 30.06 847 25.01 0.8 33.4 53 -7.7 18.1 1.255 0.049
11:12 1018 30.06 847 25.01 0.9 33.6 47 -9.3 15.2 1.31 0.052
11:13 1018 30.06 847 25.01 0.9 33.5 49 -8.7 16.3 1.271 0.05
11:14 1018 30.06 847 25.01 0.8 33.4 56 -7 19.5 1.191 0.047
11:15 1018 30.06 847 25.01 0.8 33.4 57 -6.9 19.6 1.23 0.048
11:16 1018 30.06 847 25.01 0.8 33.4 46 -9.5 14.9 1.219 0.048
11:17 1018 30.06 847 25.01 0.8 33.4 52 -8 17.6 1.173 0.046
11:18 1018 30.06 847 25.01 0.7 33.3 54 -7.6 18.4 1.133 0.045
11:19 1018 30.06 847 25.01 0.7 33.2 48 -9.2 15.5 1.071 0.042
11:20 1018 30.06 847 25.01 0.7 33.3 51 -8.4 16.9 1.099 0.043
11:21 1018 30.06 847 25.01 0.8 33.4 51 -8.3 17 1.2 0.047
11:22 1018 30.06 847 25.01 0.9 33.5 47 -9.1 15.6 1.274 0.05
11:23 1018 30.06 847 25.01 0.9 33.7 55 -7.2 19 1.415 0.056
11:24 1018 30.06 847 25.01 1 33.9 50 -8.3 17.1 1.426 0.056
11:25 1018 30.06 847 25.01 1.1 33.9 55 -6.9 19.6 1.528 0.06
11:26 1018 30.06 847 25.01 1.2 34.1 53 -7.4 18.7 1.579 0.062
11:27 1018 30.06 847 25.01 1.1 34 48 -8.6 16.5 1.589 0.063
11:28 1018 30.06 847 25.01 1.1 34 49 -8.4 16.9 1.544 0.061
11:29 1018 30.06 847 25.01 1.1 34 46 -9.1 15.5 1.543 0.061
11:30 1018 30.06 847 25.01 1.1 33.9 47 -9.1 15.6 1.52 0.06
11:31 1018 30.06 847 25.01 1.1 34 49 -8.6 16.5 1.536 0.06
11:32 1018 30.06 847 25.01 1.1 34 50 -8.3 17.1 1.593 0.063
11:33 1018 30.06 847 25.01 1.2 34.2 52 -7.6 18.3 1.711 0.067
11:34 1018 30.06 847 25.01 1.4 34.5 50 -8 17.5 1.841 0.072
11:35 1018 30.06 847 25.01 1.4 34.6 46 -8.9 15.9 1.892 0.074
11:36 1018 30.06 847 25.01 1.5 34.6 49 -8.1 17.4 1.868 0.074
11:37 1018 30.06 847 25.01 1.5 34.7 53 -7.1 19.3 1.97 0.078
11:38 1018 30.06 847 25.01 1.7 35 46 -8.9 16 2.162 0.085
11:39 1018 30.06 847 25.01 1.7 35.1 46 -8.8 16.1 2.111 0.083
11:40 1018 30.06 847 25.01 1.6 34.9 49 -8 17.6 2.015 0.079
11:41 1018 30.06 847 25.01 1.6 35 48 -8.2 17.2 2.111 0.083
11:42 1018 30.06 847 25.01 1.7 35 53 -7 19.4 2.133 0.084
11:43 1018 30.06 847 25.01 1.7 35 50 -7.6 18.4 2.077 0.082
11:44 1018 30.06 847 25.01 1.6 34.9 51 -7.5 18.5 2.008 0.079
11:45 1018 30.06 847 25.01 1.6 34.8 51 -7.5 18.5 2.02 0.08
11:46 1018 30.06 847 25.01 1.5 34.7 49 -8 17.7 1.94 0.076
11:47 1018 30.06 847 25.01 1.4 34.6 47 -8.7 16.3 1.866 0.073
11:48 1018 30.06 847 25.01 1.5 34.6 54 -6.9 19.6 1.895 0.075
11:49 1018 30.06 847 25.01 1.6 34.9 54 -6.8 19.7 2.025 0.08
11:50 1018 30.06 847 25.01 1.7 35.1 55 -6.4 20.5 2.16 0.085
11:51 1018 30.06 847 25.01 1.8 35.3 49 -7.8 17.9 2.234 0.088
11:52 1018 30.06 847 25.01 1.8 35.3 47 -8.3 17.1 2.257 0.089
11:53 1018 30.06 847 25.01 1.8 35.2 50 -7.6 18.3 2.16 0.085
11:54 1018 30.06 847 25.01 1.7 35 52 -7.2 19.1 2.058 0.081
11:55 1018 30.06 847 25.01 1.7 35 51 -7.5 18.5 2.115 0.083
11:56 1018 30.06 847 25.01 1.7 35.1 52 -7.2 19 2.205 0.087
11:57 1018 30.06 847 25.01 1.7 35.1 50 -7.5 18.5 2.166 0.085
11:58 1018 30.06 847 25.01 1.7 35.1 48 -8.2 17.2 2.103 0.083
11:59 1018 30.06 847 25.01 1.7 35 55 -6.3 20.6 2.12 0.083
12:00 1018 30.06 847 25.01 1.7 35.1 53 -6.8 19.8 2.205 0.087
12:01 1018 30.06 847 25.01 1.7 35.1 46 -8.7 16.3 2.109 0.083
12:02 1018 30.06 847 25.01 1.6 35 52 -7.2 19 2.092 0.082
12:03 1018 30.06 847 25.01 1.7 35.1 52 -7.2 19 2.143 0.084
12:04 1018 30.06 847 25.01 1.8 35.3 51 -7.3 18.9 2.227 0.088
12:05 1018 30.06 847 25.01 1.9 35.3 47 -8.2 17.3 2.288 0.09
12:06 1018 30.06 847 25.01 1.9 35.4 49 -7.8 17.9 2.3 0.091
12:07 1018 30.06 847 25.01 1.8 35.2 50 -7.5 18.6 2.22 0.087
12:08 1018 30.06 847 25.01 1.7 35 46 -8.8 16.2 2.129 0.084
12:09 1018 30.06 847 25.01 1.6 34.9 47 -8.6 16.5 2.038 0.08
12:10 1018 30.06 847 25.01 1.6 34.9 46 -8.8 16.2 2.032 0.08
12:11 1018 30.06 847 25.01 1.6 35 54 -6.7 19.9 2.054 0.081
12:12 1018 30.06 847 25.01 1.7 35 49 -7.8 17.9 2.15 0.085
12:13 1018 30.06 847 25.01 1.7 35.1 54 -6.6 20.1 2.173 0.086
12:14 1018 30.06 847 25.01 1.9 35.3 50 -7.5 18.5 2.268 0.089
12:15 1018 30.06 847 25.01 1.8 35.3 49 -7.7 18.1 2.268 0.089
12:16 1018 30.06 847 25.01 1.9 35.4 49 -7.9 17.9 2.347 0.092
12:17 1018 30.06 847 25.01 2 35.5 47 -8.3 17 2.387 0.094
12:18 1018 30.06 847 25.01 1.9 35.5 48 -7.9 17.7 2.341 0.092
12:19 1018 30.06 847 25.01 1.9 35.4 49 -7.7 18.2 2.301 0.091
12:20 1018 30.06 847 25.01 1.9 35.4 49 -7.8 18 2.283 0.09
12:21 1018 30.06 847 25.01 1.8 35.3 47 -8.5 16.8 2.232 0.088
12:22 1018 30.06 847 25.01 1.8 35.2 51 -7.4 18.7 2.186 0.086
12:23 1018 30.06 847 25.01 1.8 35.2 43 -9.4 15 2.196 0.086
12:24 1018 30.06 847 25.01 1.7 35.1 45 -8.9 16.1 2.179 0.086
12:25 1018 30.06 847 25.01 1.8 35.2 43 -9.4 15 2.19 0.086
12:26 1018 30.06 847 25.01 1.8 35.2 45 -8.8 16.2 2.195 0.086
12:27 1018 30.06 847 25.01 1.9 35.3 47 -8.4 16.9 2.297 0.09
12:28 1018 30.06 847 25.01 2 35.5 47 -8.1 17.4 2.392 0.094
12:29 1018 30.06 847 25.01 2 35.6 53 -6.5 20.3 2.426 0.096
12:30 1018 30.06 847 25.01 2 35.6 46 -8.3 17 2.466 0.097
12:31 1018 30.06 847 25.01 2 35.6 50 -7.2 19 2.42 0.095
12:32 1018 30.06 847 25.01 2.1 35.7 45 -8.7 16.4 2.471 0.097
12:33 1018 30.06 847 25.01 2 35.7 45 -8.6 16.5 2.482 0.098
12:34 1018 30.06 847 25.01 2.1 35.7 48 -7.9 17.7 2.515 0.099
12:35 1018 30.06 847 25.01 2.1 35.8 50 -7.4 18.7 2.51 0.099
12:36 1018 30.06 847 25.01 2.1 35.8 48 -7.7 18.1 2.572 0.101
12:37 1018 30.06 847 25.01 2.1 35.8 46 -8.5 16.8 2.543 0.1
12:38 1018 30.06 847 25.01 2.1 35.8 50 -7.2 19.1 2.537 0.1
12:39 1018 30.06 847 25.01 2.1 35.7 46 -8.2 17.2 2.492 0.098
12:40 1018 30.06 847 25.01 2.1 35.8 55 -6 21.2 2.509 0.099
12:41 1018 30.06 847 25.01 2.2 36 53 -6.3 20.6 2.707 0.107
12:42 1018 30.06 847 25.01 2.4 36.4 52 -6.3 20.6 2.893 0.114
12:43 1018 30.06 847 25.01 2.7 36.8 51 -6.3 20.6 3.171 0.125
12:44 1018 30.06 847 25.01 2.9 37.2 53 -5.8 21.6 3.34 0.131
12:45 1018 30.06 847 25.01 2.9 37.2 45 -7.8 18 3.346 0.132
12:46 1018 30.06 847 25.01 2.8 37.1 52 -6.1 21.1 3.317 0.131
12:47 1018 30.06 847 25.01 2.8 37 50 -6.6 20.1 3.193 0.126
12:48 1018 30.06 847 25.01 2.7 36.8 47 -7.6 18.4 3.057 0.12
12:49 1018 30.06 847 25.01 2.5 36.5 48 -7.5 18.5 2.887 0.114
12:50 1018 30.06 847 25.01 2.4 36.3 51 -6.8 19.8 2.842 0.112
12:51 1018 30.06 847 25.01 2.4 36.4 56 -5.5 22 2.893 0.114
12:52 1018 30.06 847 25.01 2.5 36.5 48 -7.5 18.5 2.949 0.116
12:53 1018 30.06 847 25.01 2.5 36.5 44 -8.4 16.8 2.915 0.115
12:54 1018 30.06 847 25.01 2.5 36.5 49 -7.2 19.1 2.91 0.115
12:55 1018 30.06 847 25.01 2.5 36.5 44 -8.5 16.7 2.909 0.115
12:56 1018 30.06 847 25.01 2.5 36.5 46 -7.8 17.9 2.909 0.115
12:57 1018 30.06 847 25.01 2.5 36.5 45 -8.2 17.2 2.898 0.114
12:58 1018 30.06 847 25.01 2.5 36.4 50 -6.8 19.8 2.898 0.114
12:59 1018 30.06 847 25.01 2.6 36.6 43 -8.9 16 2.972 0.117
13:00 1018 30.06 847 25.01 2.5 36.5 49 -7.1 19.2 2.926 0.115
13:01 1018 30.06 847 25.01 2.5 36.5 51 -6.7 19.9 2.909 0.115
13:02 1018 30.06 847 25.01 2.5 36.6 48 -7.5 18.5 2.943 0.116
13:03 1018 30.06 847 25.01 2.5 36.5 45 -8.4 16.9 2.887 0.114
13:04 1018 30.06 847 25.01 2.4 36.3 41 -9.7 14.6 2.802 0.11
13:05 1018 30.06 847 25.01 2.3 36.2 49 -7.2 19 2.83 0.111
13:06 1018 30.06 847 25.01 2.5 36.5 55 -5.7 21.8 2.977 0.117
13:07 1018 30.06 847 25.01 2.7 36.9 43 -8.5 16.7 3.152 0.124
13:08 1018 30.06 847 25.01 2.8 37 52 -6.2 20.8 3.232 0.127
13:09 1018 30.06 847 25.01 2.8 37.1 50 -6.5 20.3 3.249 0.128
13:10 1018 30.06 847 25.01 2.8 37 45 -8 17.6 3.209 0.126
13:11 1018 30.06 847 25.01 2.7 36.8 51 -6.5 20.3 3.135 0.123
13:12 1018 30.06 847 25.01 2.9 37.1 54 -5.6 22 3.339 0.131
13:13 1018 30.06 847 25.01 3.1 37.5 44 -7.9 17.8 3.515 0.138
13:14 1018 30.06 847 25.01 3 37.4 44 -8.2 17.3 3.413 0.134
13:15 1018 30.06 847 25.01 3 37.3 47 -7.2 19 3.396 0.134
13:16 1018 30.06 847 25.01 3 37.4 51 -6.1 21.1 3.418 0.135
13:17 1018 30.06 847 25.01 2.9 37.2 48 -7.1 19.1 3.328 0.131
13:18 1018 30.06 848 25.04 2.7 36.9 45 -8.1 17.4 3.101 0.122
13:19 1018 30.06 848 25.04 2.5 36.5 52 -6.4 20.5 2.943 0.116
13:20 1018 30.06 848 25.04 2.5 36.6 47 -7.6 18.3 3.028 0.119
13:21 1018 30.06 847 25.01 2.5 36.6 43 -8.7 16.3 2.954 0.116
13:22 1018 30.06 847 25.01 2.5 36.4 42 -9.3 15.3 2.915 0.115
13:23 1018 30.06 847 25.01 2.5 36.5 46 -8.1 17.4 2.909 0.115
13:24 1018 30.06 847 25.01 2.5 36.6 50 -7 19.4 3.016 0.119
13:25 1018 30.06 847 25.01 2.6 36.7 50 -6.8 19.8 3.067 0.121
13:26 1018 30.06 847 25.01 2.7 36.9 47 -7.4 18.6 3.203 0.126
13:27 1018 30.06 847 25.01 2.8 37 46 -7.8 17.9 3.226 0.127
13:28 1018 30.06 847 25.01 2.7 36.9 45 -8 17.6 3.135 0.123
13:29 1018 30.06 847 25.01 2.6 36.7 40 -9.8 14.3 3.045 0.12
13:30 1018 30.06 848 25.04 2.6 36.6 43 -8.7 16.3 2.954 0.116
13:31 1018 30.06 847 25.01 2.5 36.5 44 -8.4 16.8 2.949 0.116
13:32 1018 30.06 848 25.04 2.5 36.6 51 -6.5 20.2 2.971 0.117
13:33 1018 30.06 848 25.04 2.6 36.8 50 -6.6 20 3.124 0.123
13:34 1018 30.06 847 25.01 2.7 36.9 47 -7.5 18.5 3.152 0.124
13:35 1018 30.06 847 25.01 2.8 37 38 -10.1 13.9 3.215 0.127
13:36 1018 30.06 847 25.01 2.9 37.2 39 -9.8 14.4 3.35 0.132
13:37 1018 30.06 847 25.01 2.9 37.2 48 -7 19.4 3.339 0.131
13:38 1018 30.06 847 25.01 3 37.3 48 -7 19.4 3.447 0.136
13:39 1018 30.06 847 25.01 3 37.3 45 -7.8 17.9 3.43 0.135
13:40 1018 30.06 848 25.04 2.9 37.3 40 -9.4 15.1 3.373 0.133
13:41 1018 30.06 848 25.04 2.9 37.2 51 -6.1 21 3.345 0.132
13:42 1018 30.06 848 25.04 3.1 37.5 44 -7.9 17.7 3.543 0.139
13:43 1018 30.06 848 25.04 3.1 37.6 43 -8.2 17.2 3.514 0.138
13:44 1018 30.06 848 25.04 3.3 37.9 47 -7 19.5 3.718 0.146
13:45 1018 30.06 848 25.04 3.6 38.5 43 -7.8 17.9 4.035 0.159
13:46 1018 30.06 848 25.04 3.7 38.7 44 -7.5 18.5 4.165 0.164
13:47 1018 30.06 848 25.04 3.8 38.8 41 -8.4 16.9 4.171 0.164
13:48 1018 30.06 848 25.04 3.8 38.8 44 -7.4 18.7 4.143 0.163
13:49 1018 30.06 848 25.04 3.8 38.8 47 -6.6 20.1 4.177 0.164
13:50 1018 30.06 847 25.01 3.9 38.9 37 -9.5 15 4.335 0.171
13:51 1018 30.06 847 25.01 3.9 39 39 -8.9 16.1 4.278 0.168
13:52 1018 30.06 848 25.04 3.9 39.1 39 -8.9 16.1 4.369 0.172
13:53 1019 30.09 848 25.04 3.8 38.8 50 -5.7 21.8 4.216 0.166
13:54 1018 30.06 848 25.04 3.7 38.6 40 -8.6 16.4 4.126 0.162
13:55 1019 30.09 848 25.04 3.7 38.7 49 -6.1 21 4.205 0.166
13:56 1019 30.09 848 25.04 3.9 39 43 -7.6 18.4 4.318 0.17
13:57 1018 30.06 848 25.04 3.9 39 45 -6.9 19.6 4.329 0.17
13:58 1019 30.09 848 25.04 3.8 38.9 40 -8.5 16.7 4.29 0.169
13:59 1019 30.09 848 25.04 3.7 38.7 44 -7.5 18.6 4.126 0.162
14:00 1019 30.09 848 25.04 3.6 38.4 43 -7.8 18 4.007 0.158
14:01 1019 30.09 848 25.04 3.5 38.4 45 -7.3 18.8 4.018 0.158
14:02 1019 30.09 848 25.04 3.6 38.4 51 -5.7 21.8 4.017 0.158
14:03 1019 30.09 848 25.04 3.6 38.6 47 -6.6 20.1 4.124 0.162
14:04 1019 30.09 848 25.04 3.6 38.4 46 -6.9 19.6 4.022 0.158
14:05 1019 30.09 848 25.04 3.4 38.2 49 -6.3 20.6 3.853 0.152
14:06 1019 30.09 848 25.04 3.4 38.1 39 -9.4 15 3.858 0.152
14:07 1019 30.09 848 25.04 3.4 38 42 -8.5 16.7 3.757 0.148
14:08 1019 30.09 848 25.04 3.3 37.9 44 -8 17.7 3.682 0.145
14:09 1019 30.09 848 25.04 3.4 38.1 50 -6 21.2 3.789 0.149
14:10 1019 30.09 848 25.04 3.4 38.1 39 -9.4 15 3.834 0.151
14:11 1019 30.09 848 25.04 3.3 37.9 45 -7.7 18.2 3.726 0.147
14:12 1019 30.09 848 25.04 3.3 38 46 -7.3 18.8 3.754 0.148
14:13 1019 30.09 848 25.04 3.4 38.1 46 -7 19.3 3.833 0.151
14:14 1019 30.09 848 25.04 3.5 38.2 41 -8.6 16.5 3.906 0.154
14:15 1019 30.09 848 25.04 3.4 38.2 42 -8.4 16.9 3.855 0.152
14:16 1019 30.09 848 25.04 3.3 38 41 -8.9 16 3.748 0.148
14:17 1019 30.09 848 25.04 3.2 37.8 45 -7.6 18.2 3.662 0.144
14:18 1019 30.09 848 25.04 3.3 38 47 -6.9 19.6 3.776 0.149
14:19 1019 30.09 848 25.04 3.5 38.3 49 -6.3 20.7 3.973 0.156
14:20 1019 30.09 848 25.04 3.6 38.6 39 -9.1 15.6 4.058 0.16
14:21 1019 30.09 848 25.04 3.5 38.3 41 -8.6 16.5 3.888 0.153
14:22 1019 30.09 848 25.04 3.4 38.1 43 -7.9 17.8 3.826 0.151
14:23 1019 30.09 848 25.04 3.3 38 42 -8.4 16.8 3.82 0.15
14:24 1019 30.09 848 25.04 3.4 38.2 48 -6.6 20.1 3.859 0.152
14:25 1019 30.09 848 25.04 3.6 38.5 43 -7.9 17.8 4.069 0.16
14:26 1019 30.09 848 25.04 3.7 38.7 45 -7.1 19.2 4.221 0.166
14:27 1019 30.09 848 25.04 3.9 39.1 50 -5.5 22.1 4.374 0.172
14:28 1019 30.09 848 25.04 3.9 39.1 48 -6 21.2 4.379 0.172
14:29 1019 30.09 848 25.04 3.9 39.1 48 -6 21.2 4.355 0.171
14:30 1019 30.09 848 25.04 3.9 38.9 46 -6.8 19.8 4.287 0.169
14:31 1019 30.09 848 25.04 3.9 39 43 -7.5 18.5 4.36 0.172
14:32 1019 30.09 848 25.04 3.9 39 44 -7.4 18.7 4.354 0.171
14:33 1019 30.09 848 25.04 3.9 38.9 44 -7.3 18.8 4.275 0.168
14:34 1019 30.09 848 25.04 3.9 39 44 -7.2 19.1 4.257 0.168
14:35 1019 30.09 848 25.04 3.9 39 48 -6.1 21 4.291 0.169
14:36 1019 30.09 848 25.04 4 39.2 49 -5.9 21.4 4.46 0.176
14:37 1019 30.09 848 25.04 4.1 39.4 42 -7.8 17.9 4.578 0.18
14:38 1019 30.09 848 25.04 4.1 39.4 46 -6.5 20.3 4.556 0.179
14:39 1019 30.09 848 25.04 4.1 39.4 42 -7.6 18.4 4.465 0.176
14:40 1019 30.09 848 25.04 4.1 39.3 39 -8.7 16.3 4.493 0.177
14:41 1019 30.09 848 25.04 4 39.3 37 -9.4 15.2 4.453 0.175
14:42 1019 30.09 848 25.04 4 39.3 39 -8.6 16.6 4.402 0.173
14:43 1019 30.09 848 25.04 4 39.2 41 -8 17.6 4.441 0.175
14:44 1019 30.09 848 25.04 4 39.2 43 -7.6 18.3 4.424 0.174
14:45 1019 30.09 848 25.04 4 39.1 38 -9.1 15.7 4.373 0.172
14:46 1019 30.09 848 25.04 3.9 38.9 41 -8.2 17.3 4.237 0.167
14:47 1019 30.09 848 25.04 3.9 39 40 -8.4 16.9 4.294 0.169
14:48 1019 30.09 848 25.04 3.9 39 43 -7.6 18.4 4.305 0.169
14:49 1019 30.09 848 25.04 3.9 39 38 -9 15.7 4.338 0.171
14:50 1019 30.09 848 25.04 3.8 38.9 38 -9.1 15.7 4.259 0.168
14:51 1019 30.09 848 25.04 3.8 38.8 38 -9.3 15.3 4.186 0.165
14:52 1019 30.09 848 25.04 3.8 38.9 39 -9 15.9 4.236 0.167
14:53 1019 30.09 848 25.04 3.7 38.7 36 -10 13.9 4.168 0.164
14:54 1019 30.09 848 25.04 3.7 38.6 44 -7.6 18.4 4.123 0.162
14:55 1019 30.09 848 25.04 3.8 38.8 43 -7.7 18.1 4.208 0.166
14:56 1019 30.09 848 25.04 3.8 38.9 40 -8.5 16.7 4.293 0.169
14:57 1019 30.09 848 25.04 3.9 39 38 -9.3 15.3 4.304 0.169
14:58 1019 30.09 848 25.04 3.8 38.8 39 -9 15.9 4.219 0.166
14:59 1019 30.09 848 25.04 3.7 38.7 34 -10.7 12.8 4.219 0.166
15:00 1019 30.09 848 25.04 3.7 38.6 43 -7.9 17.8 4.077 0.161
15:01 1019 30.09 848 25.04 3.8 38.8 40 -8.7 16.3 4.179 0.165
15:02 1019 30.09 848 25.04 3.9 39 39 -8.9 16.1 4.326 0.17
15:03 1019 30.09 848 25.04 4 39.2 42 -7.9 17.8 4.422 0.174
15:04 1019 30.09 848 25.04 4.1 39.3 38 -9.1 15.5 4.501 0.177
15:05 1019 30.09 848 25.04 4.1 39.3 38 -9.1 15.6 4.468 0.176
15:06 1019 30.09 848 25.04 4.1 39.3 48 -5.9 21.4 4.535 0.179
15:07 1019 30.09 848 25.04 4.3 39.7 47 -6.1 21 4.733 0.186
15:08 1019 30.09 848 25.04 4.4 39.8 42 -7.4 18.7 4.779 0.188
15:09 1019 30.09 848 25.04 4.5 40.1 44 -6.6 20.1 4.948 0.195
15:10 1019 30.09 848 25.04 4.6 40.3 44 -6.5 20.3 5.118 0.201
15:11 1019 30.09 848 25.04 4.8 40.6 45 -6.3 20.7 5.208 0.205
15:12 1019 30.09 848 25.04 4.8 40.7 41 -7.3 18.9 5.242 0.206
15:13 1019 30.09 848 25.04 4.7 40.5 41 -7.5 18.6 5.163 0.203
15:14 1019 30.09 848 25.04 4.6 40.4 41 -7.6 18.3 5.05 0.199
15:15 1019 30.09 848 25.04 4.4 39.9 39 -8.2 17.2 4.858 0.191
15:16 1019 30.09 848 25.04 4.3 39.7 40 -8.2 17.3 4.744 0.187
15:17 1019 30.09 848 25.04 4.3 39.7 38 -8.7 16.3 4.739 0.187
15:18 1019 30.09 848 25.04 4.3 39.7 44 -7 19.4 4.699 0.185
15:19 1019 30.09 848 25.04 4.1 39.4 38 -9.1 15.6 4.546 0.179
15:20 1019 30.09 848 25.04 4 39.3 43 -7.4 18.6 4.45 0.175
15:21 1019 30.09 848 25.04 4.1 39.3 40 -8.4 16.9 4.484 0.177
15:22 1019 30.09 848 25.04 4 39.3 40 -8.5 16.8 4.445 0.175
15:23 1019 30.09 848 25.04 4 39.2 37 -9.3 15.3 4.428 0.174
15:24 1019 30.09 848 25.04 4 39.1 41 -8 17.6 4.371 0.172
15:25 1019 30.09 848 25.04 3.9 39.1 39 -8.9 15.9 4.343 0.171
15:26 1019 30.09 848 25.04 3.9 39 41 -8.1 17.4 4.365 0.172
15:27 1019 30.09 848 25.04 4 39.1 40 -8.5 16.7 4.439 0.175
15:28 1019 30.09 848 25.04 4.1 39.4 42 -7.8 17.9 4.569 0.18
15:29 1019 30.09 848 25.04 4.3 39.7 42 -7.4 18.7 4.75 0.187
15:30 1019 30.09 848 25.04 4.5 40 39 -8.4 16.9 4.937 0.194
15:31 1019 30.09 848 25.04 4.4 40 39 -8.2 17.2 4.818 0.19
15:32 1019 30.09 848 25.04 4.4 39.9 41 -7.7 18.2 4.846 0.191
15:33 1019 30.09 848 25.04 4.6 40.3 44 -6.6 20.1 5.112 0.201
15:34 1019 30.09 848 25.04 4.8 40.6 37 -8.7 16.4 5.231 0.206
15:35 1019 30.09 848 25.04 4.6 40.3 45 -6.2 20.8 5.106 0.201
15:36 1019 30.09 848 25.04 4.7 40.4 33 -10.2 13.6 5.129 0.202
15:37 1019 30.09 848 25.04 4.6 40.3 38 -8.6 16.6 5.055 0.199
15:38 1019 30.09 848 25.04 4.6 40.3 36 -9.1 15.6 5.033 0.198
15:39 1019 30.09 848 25.04 4.4 40 39 -8.2 17.2 4.857 0.191
15:40 1019 30.09 848 25.04 4.4 39.9 50 -5.1 22.9 4.829 0.19
15:41 1019 30.09 848 25.04 4.6 40.3 38 -8.5 16.8 5.05 0.199
15:42 1019 30.09 848 25.04 4.6 40.3 35 -9.5 14.9 5.055 0.199
15:43 1019 30.09 848 25.04 4.6 40.3 38 -8.6 16.6 5.106 0.201
15:44 1019 30.09 848 25.04 4.6 40.2 38 -8.7 16.4 5.01 0.197
15:45 1019 30.09 848 25.04 4.5 40.2 46 -6.2 20.9 4.982 0.196
15:46 1019 30.09 848 25.04 4.7 40.4 42 -7.2 19 5.112 0.201
15:47 1019 30.09 848 25.04 4.9 40.8 38 -8.4 16.8 5.316 0.209
15:48 1019 30.09 848 25.04 4.9 40.8 36 -9.1 15.6 5.293 0.208
15:49 1019 30.09 848 25.04 4.8 40.6 35 -9.4 15.1 5.231 0.206
15:50 1019 30.09 848 25.04 4.7 40.4 40 -7.9 17.7 5.072 0.2
15:51 1019 30.09 848 25.04 4.6 40.3 37 -8.9 15.9 5.061 0.199
15:52 1019 30.09 848 25.04 4.5 40.2 36 -9.2 15.4 4.965 0.195
15:53 1019 30.09 848 25.04 4.5 40.1 37 -8.9 16 4.92 0.194
15:54 1019 30.09 848 25.04 4.6 40.2 37 -9 15.9 5.027 0.198
15:55 1019 30.09 848 25.04 4.6 40.2 39 -8.2 17.3 4.988 0.196
15:56 1019 30.09 848 25.04 4.6 40.4 40 -7.8 18 5.089 0.2
15:57 1019 30.09 848 25.04 4.7 40.5 37 -8.7 16.4 5.14 0.202
15:58 1019 30.09 848 25.04 4.7 40.4 41 -7.3 18.8 5.129 0.202
15:59 1019 30.09 848 25.04 4.8 40.7 40 -7.8 18 5.259 0.207
16:00 1019 30.09 848 25.04 4.9 40.8 44 -6.4 20.5 5.299 0.209
16:01 1019 30.09 848 25.04 5 40.9 38 -8 17.5 5.423 0.214
16:02 1019 30.09 848 25.04 5 41 39 -7.9 17.7 5.463 0.215
16:03 1019 30.09 848 25.04 5 41 35 -9.2 15.5 5.412 0.213
16:04 1019 30.09 848 25.04 4.7 40.4 38 -8.4 16.8 5.129 0.202
16:05 1019 30.09 848 25.04 4.6 40.3 40 -7.7 18.1 5.061 0.199
16:06 1019 30.09 848 25.04 4.6 40.3 36 -9.3 15.3 5.038 0.198
16:07 1019 30.09 848 25.04 4.5 40.1 35 -9.8 14.4 4.92 0.194
16:08 1019 30.09 848 25.04 4.5 40 36 -9.3 15.3 4.874 0.192
16:09 1019 30.09 848 25.04 4.5 40.1 41 -7.7 18.1 4.925 0.194
16:10 1019 30.09 848 25.04 4.7 40.4 42 -7.1 19.2 5.118 0.201
16:11 1019 30.09 848 25.04 4.8 40.6 35 -9.5 15 5.214 0.205
16:12 1019 30.09 848 25.04 4.6 40.3 35 -9.7 14.6 5.055 0.199
16:13 1019 30.09 848 25.04 4.6 40.3 38 -8.4 16.8 5.05 0.199
16:14 1019 30.09 848 25.04 4.7 40.4 33 -10.4 13.2 5.033 0.198
16:15 1019 30.09 848 25.04 4.6 40.2 41 -7.6 18.4 4.993 0.197
16:16 1019 30.09 848 25.04 4.7 40.4 33 -10.3 13.4 5.118 0.201
16:17 1019 30.09 848 25.04 4.7 40.5 41 -7.6 18.4 5.163 0.203
16:18 1019 30.09 848 25.04 4.8 40.7 32 -10.6 13 5.253 0.207
16:19 1019 30.09 848 25.04 4.8 40.7 35 -9.3 15.3 5.293 0.208
16:20 1019 30.09 848 25.04 4.9 40.8 37 -8.5 16.7 5.321 0.209
16:21 1019 30.09 848 25.04 5 41 36 -8.7 16.3 5.451 0.215
16:22 1019 30.09 848 25.04 4.9 40.8 35 -9.2 15.4 5.355 0.211
16:23 1019 30.09 848 25.04 4.7 40.5 37 -8.8 16.1 5.112 0.201
16:24 1019 30.09 848 25.04 4.5 40.2 34 -10.1 13.9 4.988 0.196
16:25 1019 30.09 848 25.04 4.5 40.1 42 -7.2 19.1 4.937 0.194
16:26 1019 30.09 848 25.04 4.5 40.2 36 -9.1 15.6 4.993 0.197
16:27 1019 30.09 848 25.04 4.5 40.1 40 -8.1 17.5 4.914 0.193
16:28 1019 30.09 848 25.04 4.5 40 36 -9.3 15.2 4.874 0.192
16:29 1019 30.09 848 25.04 4.4 39.8 35 -9.9 14.2 4.722 0.186
16:30 1019 30.09 848 25.04 4.2 39.6 39 -8.5 16.7 4.699 0.185
16:31 1019 30.09 848 25.04 4.2 39.6 40 -8.3 17 4.631 0.182
16:32 1019 30.09 848 25.04 4.2 39.5 39 -8.5 16.7 4.575 0.18
16:33 1019 30.09 848 25.04 4.2 39.6 42 -7.7 18.1 4.648 0.183
16:34 1019 30.09 848 25.04 4.3 39.7 38 -9 15.9 4.693 0.185
16:35 1019 30.09 848 25.04 4.2 39.6 36 -9.7 14.6 4.642 0.183
16:36 1019 30.09 848 25.04 4.2 39.5 36 -9.6 14.7 4.614 0.182
16:37 1019 30.09 848 25.04 4.1 39.4 37 -9.4 15.1 4.518 0.178
16:38 1019 30.09 848 25.04 4 39.2 37 -9.5 14.9 4.456 0.175
16:39 1019 30.09 848 25.04 4.1 39.3 40 -8.2 17.2 4.535 0.179
16:40 1019 30.09 848 25.04 4.2 39.5 39 -8.4 16.8 4.592 0.181
16:41 1019 30.09 848 25.04 4.2 39.6 39 -8.4 16.9 4.659 0.183
16:42 1019 30.09 848 25.04 4.3 39.7 38 -8.8 16.1 4.693 0.185
16:43 1019 30.09 848 25.04 4.3 39.7 38 -8.9 15.9 4.716 0.186
16:44 1019 30.09 848 25.04 4.2 39.6 34 -10.2 13.7 4.654 0.183
16:45 1019 30.09 848 25.04 4.2 39.6 37 -9.3 15.2 4.637 0.183
16:46 1019 30.09 848 25.04 4.2 39.5 36 -9.5 15 4.592 0.181
16:47 1019 30.09 848 25.04 4.1 39.5 35 -10.1 13.8 4.563 0.18
16:48 1019 30.09 848 25.04 4.2 39.6 36 -9.4 15 4.608 0.181
16:49 1019 30.09 848 25.04 4.3 39.7 37 -9.2 15.5 4.693 0.185
16:50 1019 30.09 848 25.04 4.3 39.7 35 -9.8 14.3 4.693 0.185
16:51 1019 30.09 848 25.04 4.2 39.5 41 -8 17.7 4.608 0.181
16:52 1019 30.09 848 25.04 4.2 39.5 38 -8.9 15.9 4.563 0.18
16:53 1019 30.09 848 25.04 4.2 39.5 36 -9.8 14.4 4.558 0.179
16:54 1019 30.09 848 25.04 4.1 39.4 35 -10.1 13.7 4.507 0.177
16:55 1019 30.09 848 25.04 4 39.3 36 -9.6 14.7 4.456 0.175
16:56 1019 30.09 848 25.04 4.1 39.3 39 -8.7 16.3 4.473 0.176
16:57 1019 30.09 848 25.04 4.1 39.4 37 -9.4 15.1 4.586 0.181
16:58 1019 30.09 848 25.04 4.2 39.6 39 -8.4 16.9 4.659 0.183
16:59 1019 30.09 848 25.04 4.2 39.6 38 -8.8 16.2 4.648 0.183
17:00 1019 30.09 848 25.04 4.3 39.7 36 -9.5 15 4.688 0.185
17:01 1019 30.09 848 25.04 4.2 39.6 33 -10.5 13.1 4.614 0.182
17:02 1019 30.09 848 25.04 4.1 39.3 35 -10 13.9 4.467 0.176
17:03 1019 30.09 848 25.04 4 39.1 36 -9.9 14.2 4.399 0.173
17:04 1019 30.09 848 25.04 4 39.2 35 -10.3 13.5 4.399 0.173
17:05 1019 30.09 848 25.04 4 39.2 37 -9.5 14.8 4.439 0.175
17:06 1019 30.09 848 25.04 4.1 39.3 35 -10.1 13.8 4.512 0.178
17:07 1019 30.09 848 25.04 4 39.2 33 -10.9 12.3 4.461 0.176
17:08 1019 30.09 848 25.04 4 39.2 34 -10.6 12.9 4.427 0.174
17:09 1019 30.09 848 25.04 4 39.1 34 -10.5 13.1 4.388 0.173
17:10 1019 30.09 848 25.04 4 39.2 37 -9.5 14.9 4.41 0.174
17:11 1019 30.09 848 25.04 4.1 39.4 35 -10.2 13.7 4.529 0.178
17:12 1019 30.09 848 25.04 4.2 39.5 35 -10.1 13.9 4.575 0.18
17:13 1019 30.09 848 25.04 4.2 39.6 37 -9.3 15.2 4.671 0.184
17:14 1019 30.09 848 25.04 4.3 39.7 32 -10.9 12.3 4.705 0.185
17:15 1019 30.09 848 25.04 4.2 39.5 34 -10.2 13.6 4.614 0.182
17:16 1019 30.09 848 25.04 4.2 39.5 35 -10.1 13.9 4.569 0.18
17:17 1019 30.09 848 25.04 4.2 39.6 37 -9.2 15.5 4.671 0.184
17:18 1019 30.09 848 25.04 4.3 39.7 35 -9.7 14.5 4.761 0.187
17:19 1019 30.09 848 25.04 4.4 39.8 39 -8.5 16.7 4.801 0.189
17:20 1019 30.09 848 25.04 4.4 39.8 36 -9.4 15.1 4.784 0.188
17:21 1019 30.09 848 25.04 4.3 39.7 34 -10.1 13.8 4.744 0.187
17:22 1019 30.09 848 25.04 4.2 39.6 35 -10.1 13.8 4.625 0.182
17:23 1019 30.09 848 25.04 4.3 39.7 35 -9.9 14.3 4.682 0.184
17:24 1019 30.09 848 25.04 4.4 39.9 34 -10.1 13.8 4.863 0.191
17:25 1019 30.09 848 25.04 4.7 40.4 35 -9.4 15.1 5.112 0.201
17:26 1019 30.09 848 25.04 4.9 40.8 36 -9.1 15.6 5.327 0.21
17:27 1019 30.09 848 25.04 5 41 38 -8.2 17.2 5.434 0.214
17:28 1019 30.09 848 25.04 5 41 32 -10.5 13.1 5.502 0.217
17:29 1019 30.09 848 25.04 5 41 37 -8.5 16.7 5.417 0.213
17:30 1019 30.09 848 25.04 4.9 40.9 37 -8.7 16.3 5.367 0.211
17:31 1019 30.09 848 25.04 4.9 40.9 33 -10.1 13.9 5.378 0.212
17:32 1019 30.09 848 25.04 5 40.9 35 -9.4 15.1 5.406 0.213
17:33 1019 30.09 848 25.04 5.1 41.1 36 -8.9 16 5.491 0.216
17:34 1019 30.09 848 25.04 5.1 41.3 37 -8.4 16.9 5.576 0.22
17:35 1019 30.09 848 25.04 5.1 41.1 33 -10 14 5.468 0.215
17:36 1019 30.09 848 25.04 4.8 40.6 37 -8.8 16.1 5.203 0.205
17:37 1019 30.09 848 25.04 4.6 40.3 34 -10 13.9 4.993 0.197
17:38 1019 30.09 848 25.04 4.4 40 36 -9.4 15 4.835 0.19
17:39 1019 30.09 848 25.04 4.3 39.8 35 -9.7 14.5 4.716 0.186
17:40 1019 30.09 848 25.04 4.2 39.5 33 -10.6 12.9 4.558 0.179
17:41 1019 30.09 848 25.04 4.1 39.3 37 -9.2 15.5 4.461 0.176
17:42 1019 30.09 848 25.04 4 39.3 36 -9.6 14.7 4.461 0.176
17:43 1019 30.09 848 25.04 4 39.3 35 -9.9 14.1 4.507 0.177
17:44 1019 30.09 848 25.04 4.1 39.4 38 -9 15.7 4.512 0.178
17:45 1019 30.09 848 25.04 4.2 39.5 34 -10.4 13.2 4.603 0.181
17:46 1019 30.09 848 25.04 4.1 39.4 37 -9.2 15.4 4.501 0.177
17:47 1019 30.09 848 25.04 4 39.2 36 -9.9 14.2 4.456 0.175
17:48 1019 30.09 848 25.04 3.9 39.1 35 -10.1 13.9 4.36 0.172
17:49 1019 30.09 848 25.04 3.9 39 36 -9.8 14.4 4.303 0.169
17:50 1019 30.09 849 25.07 3.8 38.9 37 -9.4 15 4.28 0.169
17:51 1019 30.09 849 25.07 3.9 39 38 -9.1 15.6 4.331 0.171
17:52 1019 30.09 849 25.07 3.9 39.1 35 -10.3 13.5 4.394 0.173
17:53 1019 30.09 849 25.07 4 39.2 37 -9.4 15.1 4.444 0.175
17:54 1019 30.09 849 25.07 4 39.3 37 -9.5 14.9 4.512 0.178
17:55 1019 30.09 849 25.07 4.1 39.3 37 -9.3 15.2 4.507 0.177
17:56 1019 30.09 849 25.07 4.1 39.3 39 -8.8 16.2 4.473 0.176
17:57 1019 30.09 849 25.07 4.1 39.3 34 -10.3 13.5 4.484 0.177
17:58 1019 30.09 849 25.07 4 39.2 33 -10.9 12.3 4.427 0.174
17:59 1019 30.09 849 25.07 4 39.1 33 -10.9 12.3 4.371 0.172
18:00 1019 30.09 849 25.07 3.9 39 35 -10.2 13.7 4.326 0.17
18:01 1019 30.09 849 25.07 3.9 39 36 -10 13.9 4.309 0.17
18:02 1019 30.09 849 25.07 3.8 38.9 34 -10.5 13.2 4.258 0.168
18:03 1019 30.09 849 25.07 3.8 38.9 37 -9.7 14.6 4.246 0.167
18:04 1019 30.09 849 25.07 3.8 38.8 36 -10 14 4.229 0.166
18:05 1019 30.09 849 25.07 3.8 38.8 35 -10.3 13.4 4.207 0.166
18:06 1019 30.09 849 25.07 3.7 38.7 37 -9.7 14.5 4.179 0.165
18:07 1020 30.12 849 25.07 3.8 38.8 41 -8.3 17 4.218 0.166
18:08 1019 30.09 849 25.07 3.8 38.8 38 -9.2 15.5 4.224 0.166
18:09 1019 30.09 849 25.07 3.7 38.7 38 -9.4 15.1 4.145 0.163
18:10 1019 30.09 849 25.07 3.7 38.7 37 -9.7 14.6 4.128 0.163
18:11 1020 30.12 849 25.07 3.6 38.6 39 -9 15.8 4.048 0.159
18:12 1020 30.12 849 25.07 3.6 38.4 40 -8.7 16.3 3.997 0.157
18:13 1019 30.09 849 25.07 3.6 38.4 39 -9.1 15.5 3.992 0.157
18:14 1020 30.12 849 25.07 3.5 38.3 40 -9 15.8 3.969 0.156
18:15 1020 30.12 849 25.07 3.5 38.4 39 -9.1 15.6 3.958 0.156
18:16 1020 30.12 849 25.07 3.5 38.4 37 -10 14 3.947 0.155
18:17 1020 30.12 849 25.07 3.5 38.3 38 -9.5 14.8 3.896 0.153
18:18 1020 30.12 849 25.07 3.5 38.2 39 -9.4 15.2 3.867 0.152
18:19 1020 30.12 849 25.07 3.5 38.2 40 -9 15.9 3.907 0.154
18:20 1020 30.12 849 25.07 3.5 38.2 39 -9.2 15.5 3.896 0.153
18:21 1020 30.12 849 25.07 3.5 38.3 39 -9.1 15.6 3.952 0.156
18:22 1020 30.12 849 25.07 3.5 38.3 39 -9.4 15.1 3.907 0.154
18:23 1020 30.12 849 25.07 3.4 38.2 37 -9.9 14.2 3.839 0.151
18:24 1020 30.12 849 25.07 3.3 38 40 -9.1 15.6 3.743 0.147
18:25 1020 30.12 849 25.07 3.4 38.1 41 -8.8 16.1 3.783 0.149
18:26 1020 30.12 849 25.07 3.4 38.1 40 -8.9 16 3.783 0.149
18:27 1020 30.12 849 25.07 3.4 38.1 39 -9.4 15.1 3.839 0.151
18:28 1020 30.12 849 25.07 3.4 38.1 36 -10.4 13.2 3.783 0.149
18:29 1020 30.12 849 25.07 3.4 38.1 39 -9.3 15.3 3.783 0.149
18:30 1020 30.12 849 25.07 3.3 38 38 -9.6 14.8 3.783 0.149
18:31 1020 30.12 849 25.07 3.3 38 39 -9.3 15.2 3.754 0.148
18:32 1020 30.12 849 25.07 3.3 38 39 -9.5 15 3.76 0.148
18:33 1020 30.12 849 25.07 3.3 38 39 -9.5 14.9 3.788 0.149
18:34 1020 30.12 849 25.07 3.4 38 39 -9.3 15.3 3.777 0.149
18:35 1020 30.12 849 25.07 3.3 38 38 -9.8 14.4 3.788 0.149
18:36 1020 30.12 849 25.07 3.4 38 37 -10 14 3.766 0.148
18:37 1020 30.12 849 25.07 3.3 38 37 -10.1 13.9 3.749 0.148
18:38 1020 30.12 849 25.07 3.3 38 39 -9.2 15.4 3.754 0.148
18:39 1020 30.12 849 25.07 3.4 38 35 -10.7 12.8 3.783 0.149
18:40 1020 30.12 849 25.07 3.3 38 38 -9.8 14.3 3.76 0.148
18:41 1020 30.12 849 25.07 3.4 38.1 39 -9.2 15.5 3.822 0.15
18:42 1020 30.12 849 25.07 3.4 38.2 38 -9.6 14.8 3.839 0.151
18:43 1020 30.12 849 25.07 3.4 38.1 38 -9.8 14.4 3.833 0.151
18:44 1020 30.12 849 25.07 3.4 38 39 -9.3 15.2 3.771 0.148
18:45 1020 30.12 849 25.07 3.3 38 40 -9.1 15.7 3.732 0.147
18:46 1020 30.12 849 25.07 3.3 38 39 -9.3 15.2 3.737 0.147
18:47 1020 30.12 849 25.07 3.3 38 40 -8.9 16 3.743 0.147
18:48 1020 30.12 849 25.07 3.3 38 41 -8.8 16.1 3.766 0.148
18:49 1020 30.12 849 25.07 3.3 38 38 -9.7 14.6 3.788 0.149
18:50 1020 30.12 849 25.07 3.3 37.9 39 -9.3 15.3 3.664 0.144
18:51 1020 30.12 849 25.07 3.2 37.8 40 -9.1 15.6 3.607 0.142
18:52 1020 30.12 849 25.07 3.2 37.8 41 -8.9 15.9 3.63 0.143
18:53 1020 30.12 849 25.07 3.2 37.7 41 -8.8 16.1 3.59 0.141
18:54 1020 30.12 849 25.07 3 37.5 39 -9.5 14.8 3.483 0.137
18:55 1020 30.12 849 25.07 2.9 37.3 40 -9.5 14.8 3.353 0.132
18:56 1020 30.12 849 25.07 2.9 37.1 40 -9.4 15.1 3.296 0.13
18:57 1020 30.12 849 25.07 2.8 37.1 40 -9.5 14.9 3.256 0.128
18:58 1020 30.12 849 25.07 2.8 37.1 41 -9.1 15.6 3.239 0.128
18:59 1020 30.12 849 25.07 2.8 37.1 39 -9.7 14.6 3.268 0.129
19:00 1020 30.12 849 25.07 2.9 37.1 40 -9.4 15 3.245 0.128
19:01 1020 30.12 849 25.07 2.9 37.2 40 -9.5 14.9 3.285 0.129
19:02 1020 30.12 849 25.07 2.9 37.1 39 -9.9 14.2 3.273 0.129
19:03 1020 30.12 849 25.07 2.8 37.1 42 -9 15.8 3.251 0.128
19:04 1020 30.12 849 25.07 2.8 37.1 41 -9 15.8 3.245 0.128
19:05 1020 30.12 849 25.07 2.8 37.1 42 -8.9 16 3.268 0.129
19:06 1020 30.12 849 25.07 2.8 37.1 43 -8.6 16.6 3.251 0.128
19:07 1020 30.12 849 25.07 2.8 37.1 40 -9.4 15.1 3.24 0.128
19:08 1020 30.12 849 25.07 2.8 37 42 -9 15.8 3.179 0.125
19:09 1020 30.12 849 25.07 2.7 36.9 42 -9 15.8 3.15 0.124
19:10 1020 30.12 849 25.07 2.7 36.8 41 -9.2 15.4 3.134 0.123
19:11 1020 30.12 849 25.07 2.7 36.8 42 -9 15.8 3.101 0.122
19:12 1020 30.12 849 25.07 2.7 36.8 42 -8.9 16 3.101 0.122
19:13 1020 30.12 849 25.07 2.7 36.8 44 -8.4 16.9 3.09 0.122
19:14 1020 30.12 849 25.07 2.6 36.8 42 -9 15.7 3.034 0.119
19:15 1020 30.12 849 25.07 2.6 36.7 41 -9.4 15.2 3.051 0.12
19:16 1020 30.12 849 25.07 2.6 36.7 41 -9.2 15.4 3.006 0.118
19:17 1020 30.12 849 25.07 2.6 36.6 42 -9.2 15.4 2.989 0.118
19:18 1020 30.12 849 25.07 2.6 36.6 43 -8.9 16 3.012 0.119
19:19 1020 30.12 849 25.07 2.6 36.6 41 -9.3 15.3 3.001 0.118
19:20 1020 30.12 849 25.07 2.6 36.6 42 -9.1 15.6 2.984 0.117
19:21 1020 30.12 849 25.07 2.5 36.6 40 -9.8 14.4 2.933 0.115
19:22 1020 30.12 849 25.07 2.5 36.5 39 -9.9 14.1 2.962 0.117
19:23 1020 30.12 849 25.07 2.6 36.6 39 -9.9 14.2 2.945 0.116
19:24 1020 30.12 849 25.07 2.6 36.6 41 -9.3 15.2 2.973 0.117
19:25 1020 30.12 849 25.07 2.5 36.5 39 -10 13.9 2.911 0.115
19:26 1020 30.12 849 25.07 2.6 36.6 41 -9.4 15 2.945 0.116
19:27 1020 30.12 849 25.07 2.5 36.5 41 -9.4 15.2 2.923 0.115
19:28 1020 30.12 849 25.07 2.5 36.5 40 -9.8 14.4 2.912 0.115
19:29 1020 30.12 849 25.07 2.5 36.5 41 -9.6 14.7 2.934 0.116
19:30 1020 30.12 849 25.07 2.5 36.5 40 -9.9 14.3 2.946 0.116
19:31 1020 30.12 849 25.07 2.5 36.5 40 -9.7 14.6 2.912 0.115
19:32 1020 30.12 849 25.07 2.5 36.5 38 -10.4 13.3 2.929 0.115
19:33 1020 30.12 849 25.07 2.6 36.6 39 -10.2 13.7 2.946 0.116
19:34 1020 30.12 849 25.07 2.6 36.6 39 -10.1 13.9 2.965 0.117
19:35 1020 30.12 849 25.07 2.6 36.6 39 -10 14 2.948 0.116
19:36 1020 30.12 849 25.07 2.6 36.7 39 -10 14.1 2.999 0.118
19:37 1020 30.12 849 25.07 2.6 36.7 40 -9.8 14.3 2.988 0.118
19:38 1020 30.12 849 25.07 2.6 36.7 42 -9 15.9 3.028 0.119
19:39 1020 30.12 849 25.07 2.6 36.8 40 -9.6 14.6 3.08 0.121
19:40 1020 30.12 849 25.07 2.6 36.8 40 -9.8 14.4 3.069 0.121
19:41 1020 30.12 849 25.07 2.7 36.8 40 -9.6 14.7 3.12 0.123
19:42 1020 30.12 849 25.07 2.7 36.9 40 -9.5 14.9 3.08 0.121
19:43 1020 30.12 849 25.07 2.7 36.8 39 -9.9 14.2 3.07 0.121
19:44 1020 30.12 849 25.07 2.7 36.8 38 -10.2 13.6 3.121 0.123
19:45 1020 30.12 849 25.07 2.7 36.8 39 -10 14 3.098 0.122
19:46 1020 30.12 849 25.07 2.7 36.8 38 -10.3 13.4 3.065 0.121
19:47 1020 30.12 849 25.07 2.7 36.8 38 -10.2 13.6 3.076 0.121
19:48 1020 30.12 849 25.07 2.7 36.8 38 -10.2 13.7 3.071 0.121
19:49 1020 30.12 849 25.07 2.7 36.8 37 -10.6 12.8 3.088 0.122
19:50 1020 30.12 849 25.07 2.7 36.9 39 -10 14.1 3.116 0.123
19:51 1020 30.12 849 25.07 2.7 36.9 39 -10 14 3.156 0.124
19:52 1020 30.12 849 25.07 2.7 36.9 42 -9 15.8 3.139 0.124
19:53 1020 30.12 849 25.07 2.7 36.8 42 -8.9 15.9 3.094 0.122
19:54 1020 30.12 849 25.07 2.7 36.8 40 -9.5 14.8 3.077 0.121
19:55 1020 30.12 849 25.07 2.7 36.8 38 -10.2 13.6 3.094 0.122
19:56 1020 30.12 849 25.07 2.7 36.8 37 -10.7 12.7 3.06 0.12
19:57 1020 30.12 849 25.07 2.7 36.8 38 -10.1 13.8 3.089 0.122
19:58 1020 30.12 849 25.07 2.6 36.7 38 -10.4 13.4 3.095 0.122
19:59 1020 30.12 850 25.1 2.6 36.7 38 -10.3 13.5 3.021 0.119
20:00 1020 30.12 850 25.1 2.6 36.6 40 -9.7 14.6 2.982 0.117
20:01 1020 30.12 849 25.07 2.5 36.5 39 -10.1 13.8 2.919 0.115
20:02 1020 30.12 850 25.1 2.5 36.5 40 -9.9 14.1 2.851 0.112
20:03 1020 30.12 850 25.1 2.4 36.3 39 -10.1 13.8 2.818 0.111
20:04 1020 30.12 850 25.1 2.3 36.2 39 -10.4 13.3 2.744 0.108
20:05 1020 30.12 849 25.07 2.3 36.1 38 -10.6 12.9 2.721 0.107
20:06 1020 30.12 850 25.1 2.3 36.2 40 -10.1 13.9 2.727 0.107
20:07 1020 30.12 850 25.1 2.2 36 40 -10 14.1 2.637 0.104
20:08 1020 30.12 850 25.1 2.1 35.8 39 -10.4 13.2 2.563 0.101
20:09 1020 30.12 850 25.1 2 35.7 40 -10.1 13.8 2.456 0.097
20:10 1020 30.12 850 25.1 2 35.6 41 -9.9 14.1 2.427 0.096
20:11 1020 30.12 850 25.1 1.9 35.4 39 -10.6 12.9 2.359 0.093
20:12 1020 30.12 850 25.1 1.9 35.5 39 -10.7 12.8 2.331 0.092
20:13 1020 30.12 850 25.1 1.9 35.4 41 -10.2 13.7 2.337 0.092
20:14 1020 30.12 850 25.1 1.9 35.3 42 -9.8 14.3 2.229 0.088
20:15 1020 30.12 850 25.1 1.7 35.1 42 -10 14 2.15 0.085
20:16 1020 30.12 849 25.07 1.7 35 40 -10.6 12.9 2.071 0.082
20:17 1020 30.12 850 25.1 1.7 35 41 -10.3 13.5 2.099 0.083
20:18 1020 30.12 850 25.1 1.6 34.9 40 -10.5 13.1 2.054 0.081
20:19 1020 30.12 850 25.1 1.6 35 41 -10.2 13.7 2.043 0.08
20:20 1020 30.12 850 25.1 1.6 34.9 41 -10.3 13.5 2.014 0.079
20:21 1020 30.12 850 25.1 1.5 34.8 41 -10.4 13.3 1.952 0.077
20:22 1020 30.12 850 25.1 1.5 34.8 43 -9.8 14.3 1.947 0.077
20:23 1020 30.12 850 25.1 1.4 34.5 41 -10.4 13.4 1.822 0.072
20:24 1020 30.12 850 25.1 1.4 34.5 41 -10.5 13.1 1.822 0.072
20:25 1020 30.12 850 25.1 1.4 34.6 41 -10.5 13.1 1.833 0.072
20:26 1020 30.12 850 25.1 1.5 34.7 41 -10.5 13.2 1.896 0.075
20:27 1020 30.12 850 25.1 1.5 34.6 40 -10.7 12.7 1.839 0.072
20:28 1020 30.12 850 25.1 1.5 34.6 41 -10.5 13.2 1.879 0.074
20:29 1021 30.15 850 25.1 1.5 34.7 41 -10.4 13.2 1.884 0.074
20:30 1021 30.15 850 25.1 1.4 34.6 40 -10.8 12.6 1.834 0.072
20:31 1021 30.15 850 25.1 1.4 34.6 42 -10.2 13.7 1.862 0.073
20:32 1021 30.15 850 25.1 1.4 34.4 42 -10.1 13.8 1.743 0.069
20:33 1021 30.15 850 25.1 1.3 34.3 42 -10.3 13.4 1.641 0.065
20:34 1021 30.15 850 25.1 1.2 34.2 43 -10.1 13.9 1.681 0.066
20:35 1021 30.15 850 25.1 1.2 34.2 43 -10 14.1 1.652 0.065
20:36 1021 30.15 850 25.1 1.2 34.1 42 -10.3 13.5 1.59 0.063
20:37 1021 30.15 850 25.1 1.2 34.1 42 -10.5 13.1 1.585 0.062
20:38 1021 30.15 850 25.1 1.1 34 43 -10.1 13.8 1.562 0.061
20:39 1021 30.15 850 25.1 1.1 33.9 44 -9.9 14.2 1.477 0.058
20:40 1021 30.15 850 25.1 1 33.8 43 -10.2 13.7 1.415 0.056
20:41 1021 30.15 850 25.1 1 33.7 44 -10 14.1 1.353 0.053
20:42 1021 30.15 850 25.1 0.9 33.7 44 -9.9 14.1 1.341 0.053
20:43 1021 30.15 850 25.1 0.8 33.5 45 -9.8 14.3 1.273 0.05
20:44 1021 30.15 850 25.1 0.8 33.4 46 -9.7 14.6 1.188 0.047
20:45 1021 30.15 850 25.1 0.7 33.3 45 -9.9 14.2 1.126 0.044
20:46 1021 30.15 850 25.1 0.7 33.3 46 -9.6 14.7 1.132 0.045
20:47 1021 30.15 850 25.1 0.7 33.3 46 -9.7 14.6 1.115 0.044
20:48 1021 30.15 850 25.1 0.6 33.1 46 -9.7 14.6 1.047 0.041
20:49 1021 30.15 850 25.1 0.6 33 47 -9.5 14.9 .962 0.038
20:50 1021 30.15 850 25.1 0.5 33 46 -9.7 14.5 .934 0.037
20:51 1021 30.15 850 25.1 0.6 33 46 -9.8 14.3 .962 0.038
20:52 1021 30.15 850 25.1 0.6 33.1 46 -9.8 14.3 1.019 0.04
20:53 1021 30.15 850 25.1 0.6 33.1 46 -9.8 14.4 1.024 0.04
20:54 1021 30.15 850 25.1 0.5 33 46 -9.7 14.6 .99 0.039
20:55 1021 30.15 850 25.1 0.5 32.9 47 -9.6 14.6 .917 0.036
20:56 1021 30.15 850 25.1 0.5 32.9 47 -9.6 14.7 .89 0.035
20:57 1021 30.15 850 25.1 0.4 32.8 48 -9.4 15.1 .85 0.033
20:58 1021 30.15 850 25.1 0.3 32.6 48 -9.4 15.1 .771 0.03
20:59 1021 30.15 850 25.1 0.3 32.5 48 -9.6 14.8 .676 0.027
21:00 1021 30.15 850 25.1 0.2 32.4 48 -9.7 14.6 .648 0.026
21:01 1021 30.15 850 25.1 0.2 32.3 48 -9.5 14.9 .58 0.023
21:02 1021 30.15 850 25.1 0.1 32.2 47 -9.8 14.4 .547 0.022
21:03 1021 30.15 850 25.1 0.2 32.3 48 -9.5 14.9 .558 0.022
21:04 1021 30.15 850 25.1 0.1 32.3 49 -9.3 15.2 .558 0.022
21:05 1021 30.15 850 25.1 0.1 32.2 50 -9 15.8 .53 0.021
21:06 1021 30.15 850 25.1 -0 32 53 -8.5 16.8 .378 0.015
21:07 1021 30.15 850 25.1 -0.2 31.6 53 -8.6 16.5 .242 0.01
21:08 1021 30.15 850 25.1 -0.4 31.3 53 -8.8 16.2 .078 0.003
21:09 1021 30.15 850 25.1 -0.4 31.2 54 -8.7 16.4 .022 0.001
21:10 1021 30.15 850 25.1 -0.5 31.1 55 -8.6 16.6 -.069 -0.003
21:11 1021 30.15 850 25.1 -0.6 31 56 -8.3 17.1 -.182 -0.007
21:12 1021 30.15 850 25.1 -0.7 30.8 57 -8.1 17.5 -.221 -0.009
21:13 1021 30.15 850 25.1 -0.7 30.7 58 -7.9 17.8 -.3 -0.012
21:14 1021 30.15 850 25.1 -0.8 30.5 59 -7.9 17.8 -.413 -0.016
21:15 1021 30.15 850 25.1 -0.9 30.4 59 -7.8 17.9 -.453 -0.018
21:16 1021 30.15 850 25.1 -0.9 30.4 59 -7.9 17.8 -.475 -0.019
21:17 1021 30.15 850 25.1 -0.9 30.4 60 -7.8 18 -.508 -0.02
21:18 1021 30.15 850 25.1 -0.9 30.3 60 -7.9 17.9 -.542 -0.021
21:19 1021 30.15 850 25.1 -1 30.3 59 -8 17.6 -.536 -0.021
21:20 1021 30.15 850 25.1 -1 30.2 60 -7.8 17.9 -.563 -0.022
21:21 1021 30.15 850 25.1 -1 30.2 60 -7.8 18 -.575 -0.023
21:22 1021 30.15 850 25.1 -1 30.1 61 -7.6 18.2 -.613 -0.024
21:23 1021 30.15 850 25.1 -1.1 30.1 61 -7.7 18.1 -.664 -0.026
21:24 1021 30.15 850 25.1 -1.1 30 61 -7.8 18 -.687 -0.027
21:25 1021 30.15 850 25.1 -1.1 30 61 -7.8 18 -.664 -0.026
21:26 1021 30.15 850 25.1 -1.1 30 61 -7.8 17.9 -.72 -0.028
21:27 1021 30.15 850 25.1 -1.2 29.9 60 -7.9 17.8 -.765 -0.03
21:28 1021 30.15 851 25.13 -1.2 29.8 61 -7.8 17.9 -.787 -0.031
21:29 1021 30.15 851 25.13 -1.2 29.8 61 -7.9 17.8 -.833 -0.033
21:30 1021 30.15 851 25.13 -1.2 29.8 62 -7.6 18.2 -.844 -0.033
21:31 1021 30.15 851 25.13 -1.3 29.6 62 -7.8 18 -.883 -0.035
21:32 1021 30.15 851 25.13 -1.3 29.6 62 -7.6 18.3 -.855 -0.034
21:33 1021 30.15 851 25.13 -1.4 29.6 62 -7.8 18 -.889 -0.035
21:34 1021 30.15 851 25.13 -1.4 29.6 62 -7.7 18.1 -.928 -0.037
21:35 1021 30.15 851 25.13 -1.3 29.7 62 -7.7 18.2 -.911 -0.036
21:36 1021 30.15 851 25.13 -1.3 29.7 61 -8 17.7 -.9 -0.035
21:37 1021 30.15 851 25.13 -1.2 29.8 61 -7.8 17.9 -.854 -0.034
21:38 1022 30.18 851 25.13 -1.2 29.9 59 -8.2 17.2 -.814 -0.032
21:39 1022 30.18 851 25.13 -1.1 30 61 -7.7 18.1 -.758 -0.03
21:40 1022 30.18 851 25.13 -1.1 29.9 59 -8.2 17.2 -.735 -0.029
21:41 1022 30.18 851 25.13 -1.1 30.1 60 -7.8 18 -.673 -0.026
21:42 1022 30.18 851 25.13 -1.1 30 61 -7.8 17.9 -.712 -0.028
21:43 1022 30.18 851 25.13 -1.2 29.9 60 -7.9 17.8 -.746 -0.029
21:44 1022 30.18 851 25.13 -1.1 30 60 -7.9 17.8 -.769 -0.03
21:45 1022 30.18 851 25.13 -1.1 30.1 60 -8 17.6 -.678 -0.027
21:46 1022 30.18 851 25.13 -1.1 30.1 60 -7.8 18 -.689 -0.027
21:47 1022 30.18 851 25.13 -1 30.1 60 -7.8 17.9 -.661 -0.026
21:48 1022 30.18 851 25.13 -1 30.1 60 -7.9 17.8 -.638 -0.025
21:49 1022 30.18 851 25.13 -1 30.2 60 -7.8 18 -.627 -0.025
21:50 1022 30.18 851 25.13 -1 30.2 59 -8.1 17.5 -.627 -0.025
21:51 1022 30.18 851 25.13 -1 30.1 59 -8 17.5 -.604 -0.024
21:52 1022 30.18 851 25.13 -1 30.2 57 -8.5 16.6 -.61 -0.024
21:53 1022 30.18 851 25.13 -1 30.3 59 -8.1 17.5 -.593 -0.023
21:54 1022 30.18 851 25.13 -1 30.2 60 -7.8 17.9 -.587 -0.023
21:55 1022 30.18 851 25.13 -1.1 30 61 -7.6 18.3 -.689 -0.027
21:56 1022 30.18 851 25.13 -1.2 29.9 61 -7.8 18 -.785 -0.031
21:57 1022 30.18 851 25.13 -1.2 29.8 60 -7.9 17.7 -.802 -0.032
21:58 1022 30.18 851 25.13 -1.2 29.8 61 -7.8 17.9 -.825 -0.032
21:59 1022 30.18 851 25.13 -1.2 29.8 61 -7.8 18 -.842 -0.033
22:00 1022 30.18 851 25.13 -1.3 29.6 62 -7.7 18.1 -.904 -0.036
22:01 1022 30.18 851 25.13 -1.4 29.5 63 -7.5 18.4 -1.011 -0.04
22:02 1022 30.18 851 25.13 -1.5 29.4 63 -7.5 18.4 -1.068 -0.042
22:03 1022 30.18 851 25.13 -1.5 29.3 64 -7.4 18.7 -1.056 -0.042
22:04 1022 30.18 851 25.13 -1.6 29.1 62 -7.9 17.9 -1.168 -0.046
22:05 1022 30.18 851 25.13 -1.5 29.2 63 -7.8 18 -1.146 -0.045
22:06 1022 30.18 851 25.13 -1.5 29.3 62 -7.9 17.7 -1.061 -0.042
22:07 1022 30.18 851 25.13 -1.4 29.4 62 -7.7 18.1 -1.055 -0.042
22:08 1022 30.18 851 25.13 -1.5 29.4 62 -7.8 18 -1.044 -0.041
22:09 1022 30.18 851 25.13 -1.5 29.4 61 -8 17.5 -1.089 -0.043
22:10 1022 30.18 851 25.13 -1.4 29.4 61 -8.1 17.5 -1.02 -0.04
22:11 1022 30.18 851 25.13 -1.4 29.5 60 -8.2 17.3 -1.009 -0.04
22:12 1022 30.18 851 25.13 -1.4 29.6 61 -8 17.6 -.958 -0.038
22:13 1022 30.18 851 25.13 -1.3 29.6 61 -8 17.6 -.942 -0.037
22:14 1022 30.18 851 25.13 -1.3 29.6 60 -8 17.5 -.93 -0.037
22:15 1022 30.18 851 25.13 -1.3 29.6 60 -8 17.6 -.952 -0.037
22:16 1022 30.18 851 25.13 -1.3 29.7 60 -8.2 17.3 -.884 -0.035
22:17 1022 30.18 851 25.13 -1.2 29.8 60 -8.1 17.4 -.816 -0.032
22:18 1022 30.18 851 25.13 -1.1 29.9 59 -8.1 17.5 -.781 -0.031
22:19 1022 30.18 851 25.13 -1.1 30 58 -8.3 17.1 -.702 -0.028
22:20 1022 30.18 851 25.13 -1.1 30.1 60 -7.9 17.8 -.685 -0.027
22:21 1022 30.18 851 25.13 -1.2 29.9 60 -8 17.7 -.724 -0.029
22:22 1022 30.18 851 25.13 -1.2 29.9 61 -7.8 17.9 -.758 -0.03
22:23 1022 30.18 851 25.13 -1.2 29.8 60 -8.1 17.4 -.763 -0.03
22:24 1022 30.18 851 25.13 -1.2 29.8 62 -7.7 18.2 -.803 -0.032
22:25 1022 30.18 851 25.13 -1.3 29.6 63 -7.5 18.4 -.825 -0.032
22:26 1022 30.18 851 25.13 -1.5 29.4 62 -7.8 17.9 -.961 -0.038
22:27 1022 30.18 851 25.13 -1.5 29.4 61 -8 17.7 -1.057 -0.042
22:28 1022 30.18 851 25.13 -1.4 29.4 61 -8 17.7 -1.029 -0.041
22:29 1022 30.18 851 25.13 -1.4 29.5 59 -8.3 17 -1.006 -0.04
22:30 1022 30.18 851 25.13 -1.3 29.7 59 -8.2 17.2 -.92 -0.036
22:31 1022 30.18 851 25.13 -1.3 29.7 60 -8.1 17.4 -.863 -0.034
22:32 1022 30.18 851 25.13 -1.2 29.8 58 -8.5 16.7 -.789 -0.031
22:33 1022 30.18 851 25.13 -1 30.1 58 -8.4 16.9 -.692 -0.027
22:34 1022 30.18 851 25.13 -1 30.2 57 -8.4 16.9 -.584 -0.023
22:35 1022 30.18 851 25.13 -0.9 30.3 57 -8.5 16.8 -.561 -0.022
22:36 1022 30.18 851 25.13 -0.9 30.4 56 -8.7 16.4 -.498 -0.02
22:37 1022 30.18 851 25.13 -0.8 30.5 56 -8.6 16.5 -.436 -0.017
22:38 1022 30.18 851 25.13 -0.8 30.5 57 -8.3 17 -.407 -0.016
22:39 1022 30.18 851 25.13 -0.9 30.4 57 -8.4 16.8 -.492 -0.019
22:40 1022 30.18 851 25.13 -0.9 30.4 56 -8.6 16.5 -.492 -0.019
22:41 1022 30.18 851 25.13 -0.9 30.4 57 -8.4 16.9 -.486 -0.019
22:42 1022 30.18 851 25.13 -0.9 30.4 57 -8.3 17.1 -.474 -0.019
22:43 1022 30.18 851 25.13 -0.9 30.4 57 -8.4 16.9 -.474 -0.019
22:44 1022 30.18 851 25.13 -0.8 30.5 56 -8.5 16.6 -.451 -0.018
22:45 1022 30.18 851 25.13 -0.8 30.5 57 -8.4 16.9 -.394 -0.016
22:46 1022 30.18 851 25.13 -0.8 30.5 58 -8.2 17.3 -.434 -0.017
22:47 1022 30.18 851 25.13 -0.9 30.4 58 -8.1 17.4 -.496 -0.02
22:48 1022 30.18 851 25.13 -1 30.2 58 -8.2 17.3 -.564 -0.022
22:49 1022 30.18 851 25.13 -1.1 30 60 -8 17.6 -.665 -0.026
22:50 1022 30.18 851 25.13 -1.2 29.9 59 -8.1 17.4 -.739 -0.029
22:51 1022 30.18 851 25.13 -1.2 29.8 61 -7.9 17.8 -.807 -0.032
22:52 1022 30.18 851 25.13 -1.3 29.6 59 -8.2 17.2 -.852 -0.034
22:53 1022 30.18 851 25.13 -1.3 29.6 60 -8.2 17.2 -.92 -0.036
22:54 1022 30.18 851 25.13 -1.3 29.7 59 -8.2 17.2 -.891 -0.035
22:55 1022 30.18 851 25.13 -1.3 29.7 59 -8.4 16.9 -.857 -0.034
22:56 1022 30.18 851 25.13 -1.2 29.8 59 -8.2 17.3 -.857 -0.034
22:57 1022 30.18 851 25.13 -1.3 29.6 59 -8.2 17.2 -.885 -0.035
22:58 1022 30.18 851 25.13 -1.3 29.6 60 -8.2 17.2 -.931 -0.037
22:59 1022 30.18 851 25.13 -1.4 29.5 60 -8.1 17.4 -.965 -0.038
23:00 1022 30.18 851 25.13 -1.4 29.4 60 -8.2 17.3 -1.016 -0.04
23:01 1022 30.18 851 25.13 -1.5 29.3 62 -7.7 18.1 -1.05 -0.041
23:02 1022 30.18 851 25.13 -1.6 29.1 62 -8 17.7 -1.168 -0.046
23:03 1022 30.18 851 25.13 -1.7 28.9 62 -8 17.6 -1.27 -0.05
23:04 1022 30.18 851 25.13 -1.7 28.9 62 -8.1 17.5 -1.333 -0.052
23:05 1022 30.18 851 25.13 -1.8 28.8 62 -8.2 17.3 -1.361 -0.054
23:06 1022 30.18 851 25.13 -1.8 28.8 61 -8.3 17.1 -1.383 -0.054
23:07 1022 30.18 851 25.13 -1.8 28.8 62 -8.2 17.3 -1.412 -0.056
23:08 1022 30.18 851 25.13 -1.8 28.7 62 -8.1 17.3 -1.412 -0.056
23:09 1022 30.18 851 25.13 -1.9 28.5 62 -8.2 17.2 -1.502 -0.059
23:10 1022 30.18 851 25.13 -2 28.5 62 -8.2 17.2 -1.536 -0.06
23:11 1022 30.18 851 25.13 -2 28.5 62 -8.3 17 -1.587 -0.062
23:12 1022 30.18 851 25.13 -2 28.4 61 -8.5 16.7 -1.553 -0.061
23:13 1022 30.18 851 25.13 -2 28.4 61 -8.5 16.6 -1.604 -0.063
23:14 1022 30.18 851 25.13 -2 28.5 60 -8.6 16.5 -1.576 -0.062
23:15 1022 30.18 851 25.13 -1.9 28.6 61 -8.4 16.8 -1.496 -0.059
23:16 1022 30.18 851 25.13 -1.9 28.5 60 -8.6 16.5 -1.474 -0.058
23:17 1022 30.18 851 25.13 -1.9 28.6 62 -8.3 17 -1.491 -0.059
23:18 1022 30.18 851 25.13 -1.9 28.6 62 -8.2 17.2 -1.513 -0.06
23:19 1022 30.18 851 25.13 -1.9 28.5 63 -8.1 17.4 -1.53 -0.06
23:20 1022 30.18 852 25.16 -2 28.4 63 -8.1 17.4 -1.547 -0.061
23:21 1022 30.18 851 25.13 -2 28.3 64 -8 17.6 -1.61 -0.063
23:22 1022 30.18 851 25.13 -2 28.3 64 -8.1 17.5 -1.621 -0.064
23:23 1022 30.18 851 25.13 -2.1 28.3 64 -7.9 17.7 -1.604 -0.063
23:24 1022 30.18 851 25.13 -2 28.3 65 -7.7 18.1 -1.61 -0.063
23:25 1022 30.18 852 25.16 -2.1 28.2 65 -7.9 17.8 -1.666 -0.066
23:26 1022 30.18 851 25.13 -2.1 28.2 65 -7.8 17.9 -1.683 -0.066
23:27 1022 30.18 851 25.13 -2.1 28.2 65 -7.9 17.8 -1.734 -0.068
23:28 1022 30.18 851 25.13 -2.1 28.3 63 -8.2 17.3 -1.706 -0.067
23:29 1022 30.18 852 25.16 -2 28.4 62 -8.3 17 -1.604 -0.063
23:30 1022 30.18 852 25.16 -1.9 28.6 61 -8.4 16.8 -1.485 -0.058
23:31 1022 30.18 852 25.16 -1.8 28.8 61 -8.3 17.1 -1.383 -0.054
23:32 1022 30.18 852 25.16 -1.8 28.8 60 -8.5 16.7 -1.355 -0.053
23:33 1022 30.18 852 25.16 -1.6 29 60 -8.3 17 -1.304 -0.051
23:34 1022 30.18 852 25.16 -1.7 29 61 -8.2 17.2 -1.224 -0.048
23:35 1022 30.18 852 25.16 -1.7 29 62 -8.1 17.4 -1.258 -0.05
23:36 1022 30.18 852 25.16 -1.7 28.9 62 -8.1 17.3 -1.275 -0.05
23:37 1022 30.18 852 25.16 -1.7 28.9 62 -8 17.6 -1.36 -0.054
23:38 1022 30.18 852 25.16 -1.8 28.8 62 -8.1 17.3 -1.372 -0.054
23:39 1022 30.18 852 25.16 -1.8 28.8 62 -8.1 17.5 -1.349 -0.053
23:40 1022 30.18 852 25.16 -1.8 28.8 60 -8.5 16.7 -1.36 -0.054
23:41 1022 30.18 852 25.16 -1.7 29 60 -8.4 16.9 -1.287 -0.051
23:42 1022 30.18 852 25.16 -1.7 29 61 -8.2 17.3 -1.258 -0.05
23:43 1022 30.18 852 25.16 -1.7 28.9 62 -8.1 17.4 -1.321 -0.052
23:44 1022 30.18 852 25.16 -1.8 28.7 62 -8.2 17.2 -1.349 -0.053
23:45 1022 30.18 852 25.16 -1.8 28.7 62 -8.1 17.5 -1.411 -0.056
23:46 1022 30.18 852 25.16 -1.9 28.6 63 -8.1 17.5 -1.462 -0.058
23:47 1022 30.18 852 25.16 -2 28.4 63 -8.2 17.2 -1.525 -0.06
23:48 1022 30.18 852 25.16 -2 28.5 63 -8 17.6 -1.593 -0.063
23:49 1022 30.18 852 25.16 -2.1 28.3 64 -8 17.7 -1.643 -0.065
23:50 1022 30.18 852 25.16 -2.2 28 64 -8 17.5 -1.751 -0.069
23:51 1022 30.18 852 25.16 -2.3 27.9 65 -8 17.6 -1.83 -0.072
23:52 1022 30.18 852 25.16 -2.3 27.9 65 -8 17.6 -1.864 -0.073
23:53 1022 30.18 852 25.16 -2.4 27.7 65 -8 17.5 -1.938 -0.076
23:54 1022 30.18 852 25.16 -2.4 27.7 66 -8 17.7 -1.989 -0.078
23:55 1022 30.18 852 25.16 -2.5 27.5 66 -7.9 17.7 -2.029 -0.08
23:56 1022 30.18 852 25.16 -2.5 27.4 67 -7.9 17.8 -2.097 -0.083
23:57 1022 30.18 852 25.16 -2.6 27.3 68 -7.8 18 -2.193 -0.086
23:58 1022 30.18 852 25.16 -2.7 27.1 69 -7.7 18.2 -2.238 -0.088
23:59 1023 30.21 852 25.16 -2.8 27 69 -7.6 18.2 -2.329 -0.092
24:00 1022 30.18 852 25.16 -2.9 26.7 69 -7.8 18 -2.431 -0.096